<?xml version='1.0' encoding='UTF-8'?><gpx version="1.1" creator="JPX - https://github.com/jenetics/jpx" xmlns="http://www.topografix.com/GPX/1/1"><trk><trkseg><trkpt lat="46.05412893651066" lon="8.096678522955688"><ele>1094.9999999999998</ele><time>2026-04-26T09:40:27.39Z</time></trkpt><trkpt lat="46.054182897901505" lon="8.096613701751503"><ele>1095.0</ele><time>2026-04-26T09:40:33.39Z</time></trkpt><trkpt lat="46.0542437171651" lon="8.096564957842327"><ele>1095.0</ele><time>2026-04-26T09:40:41.999Z</time></trkpt><trkpt lat="46.054304200929344" lon="8.096526190798215"><ele>1095.0</ele><time>2026-04-26T09:40:48.999Z</time></trkpt><trkpt lat="46.054361804843396" lon="8.096465955361534"><ele>1095.0</ele><time>2026-04-26T09:40:55.999Z</time></trkpt><trkpt lat="46.05443226444593" lon="8.096438111340822"><ele>1094.9999999999998</ele><time>2026-04-26T09:41:01.999Z</time></trkpt><trkpt lat="46.05448969265735" lon="8.096394506343133"><ele>1095.0</ele><time>2026-04-26T09:41:07.999Z</time></trkpt><trkpt lat="46.05451567708565" lon="8.096308342920786"><ele>1094.8571428571427</ele><time>2026-04-26T09:41:13.999Z</time></trkpt><trkpt lat="46.05450246221029" lon="8.096210647969892"><ele>1094.7142857142858</ele><time>2026-04-26T09:41:19.999Z</time></trkpt><trkpt lat="46.05448227194739" lon="8.096106981755675"><ele>1094.5714285714284</ele><time>2026-04-26T09:41:25.999Z</time></trkpt><trkpt lat="46.05446588571396" lon="8.096011306271212"><ele>1094.4285714285713</ele><time>2026-04-26T09:41:31.999Z</time></trkpt><trkpt lat="46.05447325911835" lon="8.095906092172331"><ele>1094.2857142857142</ele><time>2026-04-26T09:41:37.999Z</time></trkpt><trkpt lat="46.05448792204378" lon="8.0958175083514"><ele>1094.142857142857</ele><time>2026-04-26T09:41:42.999Z</time></trkpt><trkpt lat="46.05451675793466" lon="8.095726001728329"><ele>1094.0</ele><time>2026-04-26T09:41:48.999Z</time></trkpt><trkpt lat="46.05455266950148" lon="8.095647457617952"><ele>1094.0</ele><time>2026-04-26T09:41:53.999Z</time></trkpt><trkpt lat="46.054585889479604" lon="8.095560030016184"><ele>1094.0</ele><time>2026-04-26T09:41:59.999Z</time></trkpt><trkpt lat="46.054607463427644" lon="8.095465782732436"><ele>1094.0</ele><time>2026-04-26T09:42:04.999Z</time></trkpt><trkpt lat="46.054636422403775" lon="8.095382767249303"><ele>1094.0</ele><time>2026-04-26T09:42:09.999Z</time></trkpt><trkpt lat="46.05466326409542" lon="8.095283990364967"><ele>1094.0</ele><time>2026-04-26T09:42:15.999Z</time></trkpt><trkpt lat="46.05469821352712" lon="8.095205987764407"><ele>1094.0</ele><time>2026-04-26T09:42:20.999Z</time></trkpt><trkpt lat="46.05472987368688" lon="8.09511636303628"><ele>1094.0</ele><time>2026-04-26T09:42:25.999Z</time></trkpt><trkpt lat="46.054755120738434" lon="8.09501959464281"><ele>1094.0</ele><time>2026-04-26T09:42:31.999Z</time></trkpt><trkpt lat="46.054784376957585" lon="8.094937230023476"><ele>1094.0</ele><time>2026-04-26T09:42:39.999Z</time></trkpt><trkpt lat="46.05481298901165" lon="8.094840037300429"><ele>1094.0</ele><time>2026-04-26T09:42:53Z</time></trkpt><trkpt lat="46.05483690071542" lon="8.094751496087563"><ele>1094.0</ele><time>2026-04-26T09:42:59Z</time></trkpt><trkpt lat="46.05483419363644" lon="8.094639730261934"><ele>1094.0</ele><time>2026-04-26T09:43:06Z</time></trkpt><trkpt lat="46.054810145750054" lon="8.09454578762428"><ele>1094.0</ele><time>2026-04-26T09:43:12Z</time></trkpt><trkpt lat="46.05477971382208" lon="8.09446006878166"><ele>1094.0</ele><time>2026-04-26T09:43:18Z</time></trkpt><trkpt lat="46.05473910426375" lon="8.094371286482598"><ele>1093.0</ele><time>2026-04-26T09:43:24Z</time></trkpt><trkpt lat="46.05468996759277" lon="8.094307481662117"><ele>1092.0</ele><time>2026-04-26T09:43:30Z</time></trkpt><trkpt lat="46.05462981795417" lon="8.094265851867414"><ele>1091.0</ele><time>2026-04-26T09:43:35.999Z</time></trkpt><trkpt lat="46.05469516418479" lon="8.094292487001871"><ele>1090.0</ele><time>2026-04-26T09:43:58.999Z</time></trkpt><trkpt lat="46.054760777900995" lon="8.094340493026381"><ele>1089.0</ele><time>2026-04-26T09:44:03.999Z</time></trkpt><trkpt lat="46.05480681127113" lon="8.094418649911292"><ele>1088.0</ele><time>2026-04-26T09:44:08.999Z</time></trkpt><trkpt lat="46.05484249396809" lon="8.094498597829737"><ele>1087.0</ele><time>2026-04-26T09:44:13.999Z</time></trkpt><trkpt lat="46.05487170152149" lon="8.094589527532031"><ele>1087.0</ele><time>2026-04-26T09:44:18.999Z</time></trkpt><trkpt lat="46.054935973885584" lon="8.094628220000562"><ele>1087.0</ele><time>2026-04-26T09:44:43.999Z</time></trkpt><trkpt lat="46.054964464063346" lon="8.094542749191145"><ele>1087.0</ele><time>2026-04-26T09:45:06.999Z</time></trkpt><trkpt lat="46.05496986661265" lon="8.094449152665678"><ele>1087.0</ele><time>2026-04-26T09:45:14.999Z</time></trkpt><trkpt lat="46.0550105167067" lon="8.094377426319697"><ele>1087.0</ele><time>2026-04-26T09:45:24.999Z</time></trkpt><trkpt lat="46.055075338305876" lon="8.094360110399618"><ele>1087.0</ele><time>2026-04-26T09:45:31.999Z</time></trkpt><trkpt lat="46.055074923827405" lon="8.094256053363429"><ele>1087.0</ele><time>2026-04-26T09:45:40.999Z</time></trkpt><trkpt lat="46.05509795905307" lon="8.094170298140819"><ele>1084.857142857143</ele><time>2026-04-26T09:45:49.999Z</time></trkpt><trkpt lat="46.05513009293484" lon="8.094086809018844"><ele>1082.7142857142856</ele><time>2026-04-26T09:45:57.999Z</time></trkpt><trkpt lat="46.055193748187456" lon="8.094071505828037"><ele>1080.5714285714284</ele><time>2026-04-26T09:46:03.999Z</time></trkpt><trkpt lat="46.055231782432465" lon="8.093989725521036"><ele>1078.4285714285713</ele><time>2026-04-26T09:46:12.999Z</time></trkpt><trkpt lat="46.05522908758277" lon="8.093896085232222"><ele>1076.2857142857142</ele><time>2026-04-26T09:46:19.999Z</time></trkpt><trkpt lat="46.05527235958008" lon="8.093823676838838"><ele>1074.142857142857</ele><time>2026-04-26T09:46:26.999Z</time></trkpt><trkpt lat="46.05530322907761" lon="8.093741220341693"><ele>1072.0</ele><time>2026-04-26T09:46:35.999Z</time></trkpt><trkpt lat="46.055311963441916" lon="8.093644790960619"><ele>1072.0</ele><time>2026-04-26T09:46:46Z</time></trkpt><trkpt lat="46.0553325574682" lon="8.093553554053347"><ele>1072.0</ele><time>2026-04-26T09:47:00Z</time></trkpt><trkpt lat="46.055377131303864" lon="8.09347303735276"><ele>1072.0</ele><time>2026-04-26T09:47:27Z</time></trkpt><trkpt lat="46.05542927301178" lon="8.093411191588991"><ele>1072.0</ele><time>2026-04-26T09:47:47Z</time></trkpt><trkpt lat="46.0554812704846" lon="8.093463977069012"><ele>1072.0</ele><time>2026-04-26T09:48:34Z</time></trkpt><trkpt lat="46.055536396153805" lon="8.093522305023424"><ele>1072.0</ele><time>2026-04-26T09:48:47Z</time></trkpt><trkpt lat="46.05552007802676" lon="8.093610538058659"><ele>1072.0</ele><time>2026-04-26T09:48:53Z</time></trkpt><trkpt lat="46.05552092358401" lon="8.09371874591063"><ele>1072.0</ele><time>2026-04-26T09:49:00Z</time></trkpt><trkpt lat="46.05555681266366" lon="8.093799600192325"><ele>1072.0</ele><time>2026-04-26T09:49:05Z</time></trkpt><trkpt lat="46.05561188961162" lon="8.093865218185227"><ele>1072.0</ele><time>2026-04-26T09:49:13Z</time></trkpt><trkpt lat="46.05563523895524" lon="8.0939504709369"><ele>1072.0</ele><time>2026-04-26T09:49:29Z</time></trkpt><trkpt lat="46.05570644041143" lon="8.093949797838272"><ele>1072.0</ele><time>2026-04-26T09:49:41Z</time></trkpt><trkpt lat="46.05577879549109" lon="8.093980275198517"><ele>1072.0</ele><time>2026-04-26T09:50:04Z</time></trkpt><trkpt lat="46.05589853184418" lon="8.094022024098562"><ele>1070.857142857143</ele><time>2026-04-26T09:50:43Z</time></trkpt><trkpt lat="46.05598431984755" lon="8.093991265250567"><ele>1069.7142857142858</ele><time>2026-04-26T09:50:51Z</time></trkpt><trkpt lat="46.05604721334625" lon="8.09397184971148"><ele>1068.5714285714284</ele><time>2026-04-26T09:51:01Z</time></trkpt><trkpt lat="46.05611075843384" lon="8.093978755837375"><ele>1067.4285714285716</ele><time>2026-04-26T09:51:08Z</time></trkpt><trkpt lat="46.05616662447381" lon="8.094029311264661"><ele>1066.2857142857142</ele><time>2026-04-26T09:51:15Z</time></trkpt><trkpt lat="46.056233671652244" lon="8.094038478512081"><ele>1065.142857142857</ele><time>2026-04-26T09:51:23Z</time></trkpt><trkpt lat="46.05630798820288" lon="8.094049148189539"><ele>1064.0</ele><time>2026-04-26T09:51:31Z</time></trkpt><trkpt lat="46.05636629748211" lon="8.094003581102697"><ele>1064.0</ele><time>2026-04-26T09:51:37Z</time></trkpt><trkpt lat="46.05643495174912" lon="8.093990631354904"><ele>1064.0</ele><time>2026-04-26T09:51:46Z</time></trkpt><trkpt lat="46.056500399879354" lon="8.094013291851198"><ele>1064.0</ele><time>2026-04-26T09:51:53Z</time></trkpt><trkpt lat="46.05655440191608" lon="8.09407652520488"><ele>1064.0</ele><time>2026-04-26T09:52:00Z</time></trkpt><trkpt lat="46.056612766193226" lon="8.094018896847366"><ele>1064.0</ele><time>2026-04-26T09:52:08Z</time></trkpt><trkpt lat="46.05664891472045" lon="8.093937090945351"><ele>1064.0</ele><time>2026-04-26T09:52:27Z</time></trkpt><trkpt lat="46.05669224066144" lon="8.09385383075129"><ele>1064.0</ele><time>2026-04-26T09:52:33.001Z</time></trkpt><trkpt lat="46.05673743148147" lon="8.09377888269855"><ele>1064.5714285714287</ele><time>2026-04-26T09:52:39.001Z</time></trkpt><trkpt lat="46.05678248808339" lon="8.093705969434653"><ele>1065.142857142857</ele><time>2026-04-26T09:52:51.001Z</time></trkpt><trkpt lat="46.056843844571375" lon="8.09364819437791"><ele>1065.7142857142858</ele><time>2026-04-26T09:52:58Z</time></trkpt><trkpt lat="46.05687207349858" lon="8.093562631697441"><ele>1066.2857142857142</ele><time>2026-04-26T09:53:03.999Z</time></trkpt><trkpt lat="46.056909009128766" lon="8.093485676785395"><ele>1066.857142857143</ele><time>2026-04-26T09:53:11.999Z</time></trkpt><trkpt lat="46.05693602556765" lon="8.093400280195302"><ele>1067.4285714285716</ele><time>2026-04-26T09:53:21.999Z</time></trkpt><trkpt lat="46.056953052997905" lon="8.093295701836158"><ele>1068.0</ele><time>2026-04-26T09:54:01Z</time></trkpt><trkpt lat="46.056954531609485" lon="8.093197309039796"><ele>1068.0000000000002</ele><time>2026-04-26T09:54:06Z</time></trkpt><trkpt lat="46.05695572513007" lon="8.093093093177721"><ele>1068.0</ele><time>2026-04-26T09:54:12Z</time></trkpt><trkpt lat="46.056942051162686" lon="8.092994632004919"><ele>1068.0</ele><time>2026-04-26T09:54:18Z</time></trkpt><trkpt lat="46.05695245824687" lon="8.092899338807053"><ele>1068.0</ele><time>2026-04-26T09:54:23Z</time></trkpt><trkpt lat="46.05697394132774" lon="8.092797515949606"><ele>1068.0</ele><time>2026-04-26T09:54:29Z</time></trkpt><trkpt lat="46.05697831495904" lon="8.09269316594913"><ele>1068.0000000000002</ele><time>2026-04-26T09:54:35Z</time></trkpt><trkpt lat="46.05699067102302" lon="8.092602705168682"><ele>1068.0</ele><time>2026-04-26T09:54:40Z</time></trkpt><trkpt lat="46.05700354250264" lon="8.092511088821825"><ele>1066.857142857143</ele><time>2026-04-26T09:54:46Z</time></trkpt><trkpt lat="46.05701279238668" lon="8.092418060030164"><ele>1065.7142857142858</ele><time>2026-04-26T09:54:51Z</time></trkpt><trkpt lat="46.05702870822364" lon="8.092320176860287"><ele>1064.5714285714284</ele><time>2026-04-26T09:54:56Z</time></trkpt><trkpt lat="46.057066924487835" lon="8.092226304097187"><ele>1063.4285714285716</ele><time>2026-04-26T09:55:02Z</time></trkpt><trkpt lat="46.05710819790524" lon="8.09213786758374"><ele>1062.2857142857142</ele><time>2026-04-26T09:55:07Z</time></trkpt><trkpt lat="46.05714298975049" lon="8.092052947370437"><ele>1061.142857142857</ele><time>2026-04-26T09:55:12Z</time></trkpt><trkpt lat="46.05719803435268" lon="8.09199026318973"><ele>1060.0</ele><time>2026-04-26T09:55:17Z</time></trkpt><trkpt lat="46.05724099189986" lon="8.091913739483134"><ele>1059.9999999999998</ele><time>2026-04-26T09:55:22Z</time></trkpt><trkpt lat="46.05727118324586" lon="8.091832094352972"><ele>1060.0</ele><time>2026-04-26T09:55:27Z</time></trkpt><trkpt lat="46.05730096162092" lon="8.091748497268748"><ele>1060.0</ele><time>2026-04-26T09:55:32Z</time></trkpt><trkpt lat="46.05734103705021" lon="8.091676805414155"><ele>1060.0</ele><time>2026-04-26T09:55:41Z</time></trkpt><trkpt lat="46.057373115816304" lon="8.091597184828261"><ele>1060.0</ele><time>2026-04-26T09:55:47Z</time></trkpt><trkpt lat="46.05743953509475" lon="8.091601802351153"><ele>1059.9999999999998</ele><time>2026-04-26T09:56:02Z</time></trkpt><trkpt lat="46.057502762162585" lon="8.091596289432761"><ele>1060.0</ele><time>2026-04-26T09:56:12Z</time></trkpt><trkpt lat="46.057551622364834" lon="8.091525965644193"><ele>1062.2857142857142</ele><time>2026-04-26T09:56:21Z</time></trkpt><trkpt lat="46.05760901968456" lon="8.091486195109209"><ele>1064.5714285714284</ele><time>2026-04-26T09:56:28Z</time></trkpt><trkpt lat="46.05766564775839" lon="8.091440535476664"><ele>1066.857142857143</ele><time>2026-04-26T09:56:35Z</time></trkpt><trkpt lat="46.05773902119208" lon="8.091421451803631"><ele>1069.142857142857</ele><time>2026-04-26T09:56:43Z</time></trkpt><trkpt lat="46.05780297034222" lon="8.09143415179154"><ele>1071.4285714285716</ele><time>2026-04-26T09:56:51Z</time></trkpt><trkpt lat="46.057841276797895" lon="8.09150697160098"><ele>1073.7142857142858</ele><time>2026-04-26T09:56:57Z</time></trkpt><trkpt lat="46.05790198248052" lon="8.091474331108046"><ele>1076.0</ele><time>2026-04-26T09:57:10Z</time></trkpt><trkpt lat="46.0579726845096" lon="8.091496617762221"><ele>1076.0</ele><time>2026-04-26T09:57:22Z</time></trkpt><trkpt lat="46.05801742634662" lon="8.0915606796127"><ele>1076.0</ele><time>2026-04-26T09:57:39Z</time></trkpt><trkpt lat="46.05807664930944" lon="8.091512733487331"><ele>1076.0</ele><time>2026-04-26T09:57:51Z</time></trkpt><trkpt lat="46.0581063741647" lon="8.091428462192411"><ele>1076.0</ele><time>2026-04-26T09:58:00Z</time></trkpt><trkpt lat="46.05817112198706" lon="8.091432922484143"><ele>1076.0</ele><time>2026-04-26T09:58:06Z</time></trkpt><trkpt lat="46.05823597699551" lon="8.091435358382402"><ele>1076.0</ele><time>2026-04-26T09:58:12Z</time></trkpt><trkpt lat="46.058300440874156" lon="8.09143448827185"><ele>1076.0</ele><time>2026-04-26T09:58:19Z</time></trkpt><trkpt lat="46.058381033082604" lon="8.091446427233654"><ele>1079.857142857143</ele><time>2026-04-26T09:58:30Z</time></trkpt><trkpt lat="46.05844838875353" lon="8.091419102526997"><ele>1083.7142857142858</ele><time>2026-04-26T09:58:39.001Z</time></trkpt><trkpt lat="46.05851579655608" lon="8.09141017796002"><ele>1087.5714285714287</ele><time>2026-04-26T09:58:48.001Z</time></trkpt><trkpt lat="46.058586127229255" lon="8.091409996930867"><ele>1091.4285714285716</ele><time>2026-04-26T09:58:57.001Z</time></trkpt><trkpt lat="46.05864933680836" lon="8.091431975989703"><ele>1095.2857142857142</ele><time>2026-04-26T09:59:05.001Z</time></trkpt><trkpt lat="46.05871723855063" lon="8.091445973640262"><ele>1099.1428571428573</ele><time>2026-04-26T09:59:14.001Z</time></trkpt><trkpt lat="46.05877748456578" lon="8.091504171338638"><ele>1103.0</ele><time>2026-04-26T09:59:21.001Z</time></trkpt><trkpt lat="46.05880861469517" lon="8.091586041998209"><ele>1102.857142857143</ele><time>2026-04-26T09:59:26.001Z</time></trkpt><trkpt lat="46.058841810542496" lon="8.091678582052836"><ele>1102.7142857142858</ele><time>2026-04-26T09:59:36.001Z</time></trkpt><trkpt lat="46.05887748535992" lon="8.091755867414125"><ele>1102.5714285714284</ele><time>2026-04-26T09:59:42.001Z</time></trkpt><trkpt lat="46.058877795920836" lon="8.09186142424488"><ele>1102.4285714285716</ele><time>2026-04-26T10:00:03.001Z</time></trkpt><trkpt lat="46.058943947584915" lon="8.091921147176718"><ele>1102.2857142857142</ele><time>2026-04-26T10:00:12.001Z</time></trkpt><trkpt lat="46.05900561490906" lon="8.091998082345434"><ele>1102.142857142857</ele><time>2026-04-26T10:00:42.001Z</time></trkpt><trkpt lat="46.05907168226926" lon="8.092035200708954"><ele>1102.0</ele><time>2026-04-26T10:00:51.001Z</time></trkpt><trkpt lat="46.05910715685835" lon="8.091948356531521"><ele>1106.142857142857</ele><time>2026-04-26T10:01:18.001Z</time></trkpt><trkpt lat="46.05912410951716" lon="8.091860555164905"><ele>1110.2857142857142</ele><time>2026-04-26T10:01:25Z</time></trkpt><trkpt lat="46.05913429884231" lon="8.091767104366062"><ele>1114.4285714285716</ele><time>2026-04-26T10:01:34Z</time></trkpt><trkpt lat="46.05917790154545" lon="8.09183459442602"><ele>1118.5714285714284</ele><time>2026-04-26T10:01:40Z</time></trkpt><trkpt lat="46.05923937454257" lon="8.091877140422076"><ele>1122.7142857142858</ele><time>2026-04-26T10:01:48Z</time></trkpt><trkpt lat="46.05929777284799" lon="8.091915351667044"><ele>1126.857142857143</ele><time>2026-04-26T10:01:55Z</time></trkpt><trkpt lat="46.05935193614754" lon="8.091973016632947"><ele>1131.0</ele><time>2026-04-26T10:02:04.001Z</time></trkpt><trkpt lat="46.059407176811426" lon="8.092034950354611"><ele>1131.0000000000002</ele><time>2026-04-26T10:02:13.001Z</time></trkpt><trkpt lat="46.05946994436316" lon="8.092072766922735"><ele>1131.0</ele><time>2026-04-26T10:02:22.001Z</time></trkpt><trkpt lat="46.05952591885529" lon="8.092118056538268"><ele>1131.0</ele><time>2026-04-26T10:02:27.001Z</time></trkpt><trkpt lat="46.059592876649305" lon="8.092154598551392"><ele>1131.0</ele><time>2026-04-26T10:02:39Z</time></trkpt><trkpt lat="46.05963779780214" lon="8.09222316076596"><ele>1131.0</ele><time>2026-04-26T10:02:47Z</time></trkpt><trkpt lat="46.059639074166036" lon="8.092120974559318"><ele>1131.0000000000002</ele><time>2026-04-26T10:02:59Z</time></trkpt><trkpt lat="46.05964042334387" lon="8.092029774402492"><ele>1131.0</ele><time>2026-04-26T10:03:07Z</time></trkpt><trkpt lat="46.05959181059979" lon="8.091967187414156"><ele>1131.0000000000002</ele><time>2026-04-26T10:03:14Z</time></trkpt><trkpt lat="46.05956708549078" lon="8.091858933507812"><ele>1131.0</ele><time>2026-04-26T10:03:22Z</time></trkpt><trkpt lat="46.059543005165615" lon="8.091774964382797"><ele>1131.0</ele><time>2026-04-26T10:03:27Z</time></trkpt><trkpt lat="46.05954908339089" lon="8.091679960482498"><ele>1131.0</ele><time>2026-04-26T10:03:36Z</time></trkpt><trkpt lat="46.05952453760706" lon="8.091593451087578"><ele>1131.0</ele><time>2026-04-26T10:03:44Z</time></trkpt><trkpt lat="46.05949026925866" lon="8.091512728116422"><ele>1131.0000000000002</ele><time>2026-04-26T10:03:50Z</time></trkpt><trkpt lat="46.05945510171145" lon="8.091424530814535"><ele>1131.0</ele><time>2026-04-26T10:03:58Z</time></trkpt><trkpt lat="46.05942538884889" lon="8.091334843003995"><ele>1133.1428571428573</ele><time>2026-04-26T10:04:06Z</time></trkpt><trkpt lat="46.05939596998765" lon="8.091241160479633"><ele>1135.2857142857142</ele><time>2026-04-26T10:04:16Z</time></trkpt><trkpt lat="46.05937582363635" lon="8.091154383197754"><ele>1137.4285714285716</ele><time>2026-04-26T10:04:24Z</time></trkpt><trkpt lat="46.05936045833578" lon="8.091058905764537"><ele>1139.5714285714287</ele><time>2026-04-26T10:04:31Z</time></trkpt><trkpt lat="46.059355241169335" lon="8.09096333433546"><ele>1141.7142857142858</ele><time>2026-04-26T10:04:41Z</time></trkpt><trkpt lat="46.05936392045927" lon="8.090862754539602"><ele>1143.857142857143</ele><time>2026-04-26T10:04:48Z</time></trkpt><trkpt lat="46.05936632231624" lon="8.090765192505623"><ele>1146.0</ele><time>2026-04-26T10:05:08Z</time></trkpt><trkpt lat="46.0593471566908" lon="8.090674740311794"><ele>1150.142857142857</ele><time>2026-04-26T10:05:15Z</time></trkpt><trkpt lat="46.0593307897091" lon="8.09058317827331"><ele>1154.2857142857144</ele><time>2026-04-26T10:05:23Z</time></trkpt><trkpt lat="46.05931142120549" lon="8.090493138929995"><ele>1158.4285714285716</ele><time>2026-04-26T10:05:34Z</time></trkpt><trkpt lat="46.059307114944076" lon="8.090394215610607"><ele>1162.5714285714287</ele><time>2026-04-26T10:05:46Z</time></trkpt><trkpt lat="46.059302533839464" lon="8.09030299184579"><ele>1166.7142857142858</ele><time>2026-04-26T10:05:58Z</time></trkpt><trkpt lat="46.059286505861785" lon="8.090208754710021"><ele>1170.857142857143</ele><time>2026-04-26T10:06:13Z</time></trkpt><trkpt lat="46.05925035311915" lon="8.090105567024507"><ele>1175.0</ele><time>2026-04-26T10:07:43.001Z</time></trkpt><trkpt lat="46.05924075337725" lon="8.090012282417703"><ele>1175.0</ele><time>2026-04-26T10:07:53.001Z</time></trkpt><trkpt lat="46.05927557727355" lon="8.089928651432464"><ele>1175.0</ele><time>2026-04-26T10:08:12.001Z</time></trkpt><trkpt lat="46.05932052367973" lon="8.089863406801129"><ele>1175.0</ele><time>2026-04-26T10:08:20.001Z</time></trkpt><trkpt lat="46.0593055642809" lon="8.089769130028792"><ele>1175.0</ele><time>2026-04-26T10:08:33.001Z</time></trkpt><trkpt lat="46.05929237035736" lon="8.089663851087032"><ele>1175.0</ele><time>2026-04-26T10:08:49.001Z</time></trkpt><trkpt lat="46.059239097642845" lon="8.089614583699037"><ele>1175.0</ele><time>2026-04-26T10:09:03.001Z</time></trkpt><trkpt lat="46.05918873470335" lon="8.089549133120027"><ele>1175.0</ele><time>2026-04-26T10:09:15.001Z</time></trkpt><trkpt lat="46.05917855507612" lon="8.089455879759882"><ele>1173.5714285714284</ele><time>2026-04-26T10:09:24.001Z</time></trkpt><trkpt lat="46.059150822744286" lon="8.089361495689145"><ele>1172.142857142857</ele><time>2026-04-26T10:09:38.001Z</time></trkpt><trkpt lat="46.05911880264045" lon="8.089281577042717"><ele>1170.7142857142858</ele><time>2026-04-26T10:09:49.001Z</time></trkpt><trkpt lat="46.059080051333446" lon="8.08920470832521"><ele>1169.2857142857142</ele><time>2026-04-26T10:10:00.001Z</time></trkpt><trkpt lat="46.0590361186628" lon="8.089134948909638"><ele>1167.857142857143</ele><time>2026-04-26T10:10:12.001Z</time></trkpt><trkpt lat="46.05900198841146" lon="8.089047315589893"><ele>1166.4285714285713</ele><time>2026-04-26T10:10:23.001Z</time></trkpt><trkpt lat="46.059039892257054" lon="8.088965605533781"><ele>1165.0</ele><time>2026-04-26T10:12:14Z</time></trkpt><trkpt lat="46.05899241151558" lon="8.088902764040437"><ele>1170.5714285714284</ele><time>2026-04-26T10:12:23Z</time></trkpt><trkpt lat="46.05894083962627" lon="8.08884013719131"><ele>1176.142857142857</ele><time>2026-04-26T10:12:33Z</time></trkpt><trkpt lat="46.05888313175485" lon="8.088779984764678"><ele>1181.7142857142858</ele><time>2026-04-26T10:12:40Z</time></trkpt><trkpt lat="46.05886360283773" lon="8.08868801685203"><ele>1187.2857142857142</ele><time>2026-04-26T10:12:48Z</time></trkpt><trkpt lat="46.05882193442725" lon="8.088590484231439"><ele>1192.857142857143</ele><time>2026-04-26T10:12:59Z</time></trkpt><trkpt lat="46.0587775219501" lon="8.088514222509364"><ele>1198.4285714285713</ele><time>2026-04-26T10:13:08Z</time></trkpt><trkpt lat="46.058728633512025" lon="8.088453395339489"><ele>1204.0</ele><time>2026-04-26T10:13:16Z</time></trkpt><trkpt lat="46.05868197863219" lon="8.088385832065379"><ele>1204.0</ele><time>2026-04-26T10:13:26Z</time></trkpt><trkpt lat="46.05864656360844" lon="8.088306711483789"><ele>1204.0</ele><time>2026-04-26T10:13:35Z</time></trkpt><trkpt lat="46.05862050296724" lon="8.08818696401204"><ele>1204.0</ele><time>2026-04-26T10:13:49Z</time></trkpt><trkpt lat="46.05858394375478" lon="8.088109078206449"><ele>1204.0</ele><time>2026-04-26T10:14:00Z</time></trkpt><trkpt lat="46.05855586716281" lon="8.08802323428101"><ele>1204.0</ele><time>2026-04-26T10:14:11Z</time></trkpt><trkpt lat="46.05853225227405" lon="8.0879362402087"><ele>1204.0</ele><time>2026-04-26T10:14:24Z</time></trkpt><trkpt lat="46.058513806275954" lon="8.087841117165864"><ele>1204.0</ele><time>2026-04-26T10:14:30Z</time></trkpt><trkpt lat="46.058485599453945" lon="8.08775976804882"><ele>1209.2857142857142</ele><time>2026-04-26T10:14:37Z</time></trkpt><trkpt lat="46.05846262359447" lon="8.08767355502232"><ele>1214.5714285714284</ele><time>2026-04-26T10:14:44Z</time></trkpt><trkpt lat="46.05841310571305" lon="8.087588316615804"><ele>1219.857142857143</ele><time>2026-04-26T10:14:55Z</time></trkpt><trkpt lat="46.05839677820531" lon="8.087489096202932"><ele>1225.142857142857</ele><time>2026-04-26T10:15:06Z</time></trkpt><trkpt lat="46.058391877918325" lon="8.087394371709086"><ele>1230.4285714285713</ele><time>2026-04-26T10:15:15Z</time></trkpt><trkpt lat="46.0583838067969" lon="8.087296049774165"><ele>1235.7142857142858</ele><time>2026-04-26T10:15:26Z</time></trkpt><trkpt lat="46.058335055414325" lon="8.08723335138242"><ele>1241.0</ele><time>2026-04-26T10:15:39Z</time></trkpt><trkpt lat="46.0582669267056" lon="8.087228285122466"><ele>1242.142857142857</ele><time>2026-04-26T10:15:49Z</time></trkpt><trkpt lat="46.05820684760268" lon="8.087178572388543"><ele>1243.2857142857142</ele><time>2026-04-26T10:15:57Z</time></trkpt><trkpt lat="46.05815177440898" lon="8.08711368992367"><ele>1244.4285714285713</ele><time>2026-04-26T10:16:06Z</time></trkpt><trkpt lat="46.05811115662948" lon="8.087021258523677"><ele>1245.5714285714284</ele><time>2026-04-26T10:16:16Z</time></trkpt><trkpt lat="46.05809269975813" lon="8.086915296514247"><ele>1246.7142857142858</ele><time>2026-04-26T10:16:24Z</time></trkpt><trkpt lat="46.058048907763386" lon="8.086844239879513"><ele>1247.8571428571427</ele><time>2026-04-26T10:16:31Z</time></trkpt><trkpt lat="46.05798151256209" lon="8.08681593124279"><ele>1249.0</ele><time>2026-04-26T10:16:42Z</time></trkpt><trkpt lat="46.05793343057803" lon="8.086747228869445"><ele>1248.9999999999998</ele><time>2026-04-26T10:16:52Z</time></trkpt><trkpt lat="46.05788375430042" lon="8.086690760174022"><ele>1249.0</ele><time>2026-04-26T10:17:00Z</time></trkpt><trkpt lat="46.057825188186094" lon="8.086636251218449"><ele>1249.0</ele><time>2026-04-26T10:17:10Z</time></trkpt><trkpt lat="46.05777655005901" lon="8.086570769938277"><ele>1249.0</ele><time>2026-04-26T10:17:20Z</time></trkpt><trkpt lat="46.0577260528416" lon="8.08650036348981"><ele>1249.0</ele><time>2026-04-26T10:17:30Z</time></trkpt><trkpt lat="46.05766724986208" lon="8.0864460553553"><ele>1248.9999999999998</ele><time>2026-04-26T10:17:39Z</time></trkpt><trkpt lat="46.057607223203924" lon="8.086397760575364"><ele>1249.0</ele><time>2026-04-26T10:17:49Z</time></trkpt><trkpt lat="46.057558247431366" lon="8.086329417271516"><ele>1250.142857142857</ele><time>2026-04-26T10:17:59Z</time></trkpt><trkpt lat="46.05750480264973" lon="8.086272237369776"><ele>1251.2857142857142</ele><time>2026-04-26T10:18:10.001Z</time></trkpt><trkpt lat="46.057465357167786" lon="8.08619738895925"><ele>1252.4285714285716</ele><time>2026-04-26T10:20:55Z</time></trkpt><trkpt lat="46.05739765779858" lon="8.086113413428349"><ele>1253.5714285714284</ele><time>2026-04-26T10:21:13Z</time></trkpt><trkpt lat="46.057331268884425" lon="8.086083519537123"><ele>1254.7142857142858</ele><time>2026-04-26T10:21:27Z</time></trkpt><trkpt lat="46.05726848758042" lon="8.086046557473534"><ele>1255.857142857143</ele><time>2026-04-26T10:21:36Z</time></trkpt><trkpt lat="46.05721764530652" lon="8.085989560939824"><ele>1257.0</ele><time>2026-04-26T10:21:43.999Z</time></trkpt><trkpt lat="46.05716386331092" lon="8.085913390445024"><ele>1257.0000000000002</ele><time>2026-04-26T10:21:50.999Z</time></trkpt><trkpt lat="46.057125700872064" lon="8.085838094762508"><ele>1257.0</ele><time>2026-04-26T10:21:56.999Z</time></trkpt><trkpt lat="46.05706582497884" lon="8.085789281628601"><ele>1257.0</ele><time>2026-04-26T10:22:03.999Z</time></trkpt><trkpt lat="46.057006487305316" lon="8.085732032587396"><ele>1257.0</ele><time>2026-04-26T10:22:10.999Z</time></trkpt><trkpt lat="46.05695523106497" lon="8.085674489930696"><ele>1257.0</ele><time>2026-04-26T10:22:17.999Z</time></trkpt><trkpt lat="46.056942951579444" lon="8.085569979239493"><ele>1257.0000000000002</ele><time>2026-04-26T10:22:36.999Z</time></trkpt><trkpt lat="46.05696979605956" lon="8.085463815221699"><ele>1257.0</ele><time>2026-04-26T10:23:22.999Z</time></trkpt><trkpt lat="46.0569208671019" lon="8.08539140171724"><ele>1258.0000000000002</ele><time>2026-04-26T10:23:35.999Z</time></trkpt><trkpt lat="46.05687102562016" lon="8.085318948839912"><ele>1259.0</ele><time>2026-04-26T10:24:15.999Z</time></trkpt><trkpt lat="46.056817456217786" lon="8.085378422119442"><ele>1260.0</ele><time>2026-04-26T10:24:58.999Z</time></trkpt><trkpt lat="46.05674935049579" lon="8.085373690283884"><ele>1261.0</ele><time>2026-04-26T10:25:08.999Z</time></trkpt><trkpt lat="46.05669051254287" lon="8.085336490922748"><ele>1262.0</ele><time>2026-04-26T10:25:17.999Z</time></trkpt><trkpt lat="46.05663576357579" lon="8.085273234978873"><ele>1263.0000000000002</ele><time>2026-04-26T10:25:24.999Z</time></trkpt><trkpt lat="46.05658140361866" lon="8.085199315393309"><ele>1264.0</ele><time>2026-04-26T10:25:38.999Z</time></trkpt><trkpt lat="46.05652944430031" lon="8.085138881054801"><ele>1264.0000000000002</ele><time>2026-04-26T10:25:47.999Z</time></trkpt><trkpt lat="46.056477627670006" lon="8.085070957558989"><ele>1264.0</ele><time>2026-04-26T10:25:54.999Z</time></trkpt><trkpt lat="46.05641831466309" lon="8.085001918823567"><ele>1264.0</ele><time>2026-04-26T10:26:00.999Z</time></trkpt><trkpt lat="46.05635329526882" lon="8.084951540466351"><ele>1264.0</ele><time>2026-04-26T10:26:08.999Z</time></trkpt><trkpt lat="46.05629566228841" lon="8.08489826940593"><ele>1264.0</ele><time>2026-04-26T10:26:14.999Z</time></trkpt><trkpt lat="46.05623686706146" lon="8.084856637783478"><ele>1264.0000000000002</ele><time>2026-04-26T10:26:21.999Z</time></trkpt><trkpt lat="46.05616459813403" lon="8.084844311571384"><ele>1264.0</ele><time>2026-04-26T10:26:27.999Z</time></trkpt><trkpt lat="46.05609245429328" lon="8.084849425338057"><ele>1268.2857142857144</ele><time>2026-04-26T10:26:33.999Z</time></trkpt><trkpt lat="46.05602632550056" lon="8.08482327563107"><ele>1272.5714285714287</ele><time>2026-04-26T10:26:39.999Z</time></trkpt><trkpt lat="46.05595500267033" lon="8.084779020871206"><ele>1276.857142857143</ele><time>2026-04-26T10:26:45.999Z</time></trkpt><trkpt lat="46.055905772649886" lon="8.084720075073104"><ele>1281.1428571428573</ele><time>2026-04-26T10:26:51.999Z</time></trkpt><trkpt lat="46.055837683523784" lon="8.084707511504853"><ele>1285.4285714285716</ele><time>2026-04-26T10:26:59Z</time></trkpt><trkpt lat="46.05577356094298" lon="8.084695428305366"><ele>1289.7142857142858</ele><time>2026-04-26T10:27:05Z</time></trkpt><trkpt lat="46.05570872880426" lon="8.084678375399214"><ele>1294.0</ele><time>2026-04-26T10:27:11Z</time></trkpt><trkpt lat="46.055644351316516" lon="8.084698872534426"><ele>1294.0</ele><time>2026-04-26T10:27:17Z</time></trkpt><trkpt lat="46.055578876302114" lon="8.08467585647276"><ele>1294.0</ele><time>2026-04-26T10:27:23Z</time></trkpt><trkpt lat="46.055522375218665" lon="8.084628090953197"><ele>1294.0</ele><time>2026-04-26T10:27:29Z</time></trkpt><trkpt lat="46.05547012509587" lon="8.08457063395483"><ele>1294.0</ele><time>2026-04-26T10:27:36Z</time></trkpt><trkpt lat="46.05540480642481" lon="8.084526519838239"><ele>1294.0</ele><time>2026-04-26T10:27:43Z</time></trkpt><trkpt lat="46.05534253742267" lon="8.084479677707106"><ele>1294.0</ele><time>2026-04-26T10:27:50Z</time></trkpt><trkpt lat="46.05528165129983" lon="8.084432304035985"><ele>1294.0</ele><time>2026-04-26T10:27:58Z</time></trkpt><trkpt lat="46.0552099305631" lon="8.084403943831912"><ele>1294.0</ele><time>2026-04-26T10:28:04Z</time></trkpt><trkpt lat="46.05514730486928" lon="8.084374997307135"><ele>1294.0</ele><time>2026-04-26T10:28:12Z</time></trkpt><trkpt lat="46.055094310808606" lon="8.084322324113892"><ele>1294.0</ele><time>2026-04-26T10:28:20Z</time></trkpt><trkpt lat="46.05504995768966" lon="8.084255827521023"><ele>1294.0</ele><time>2026-04-26T10:28:29Z</time></trkpt><trkpt lat="46.055006083649396" lon="8.084182473253675"><ele>1294.0</ele><time>2026-04-26T10:28:37Z</time></trkpt><trkpt lat="46.05498727386126" lon="8.084093509736679"><ele>1294.0</ele><time>2026-04-26T10:28:42Z</time></trkpt><trkpt lat="46.05493396397794" lon="8.084027016091321"><ele>1294.0</ele><time>2026-04-26T10:28:49Z</time></trkpt><trkpt lat="46.05485717020179" lon="8.08401048443876"><ele>1296.5714285714284</ele><time>2026-04-26T10:28:56Z</time></trkpt><trkpt lat="46.05478867759178" lon="8.083964905510953"><ele>1299.142857142857</ele><time>2026-04-26T10:29:04Z</time></trkpt><trkpt lat="46.05472175596565" lon="8.083935308832434"><ele>1301.7142857142858</ele><time>2026-04-26T10:29:11Z</time></trkpt><trkpt lat="46.054660255233024" lon="8.083893271285257"><ele>1304.2857142857142</ele><time>2026-04-26T10:29:19Z</time></trkpt><trkpt lat="46.05459480831476" lon="8.083891946035562"><ele>1306.857142857143</ele><time>2026-04-26T10:29:25Z</time></trkpt><trkpt lat="46.05452523046974" lon="8.083906461839666"><ele>1309.4285714285713</ele><time>2026-04-26T10:29:32Z</time></trkpt><trkpt lat="46.05445180893375" lon="8.083912214473907"><ele>1312.0</ele><time>2026-04-26T10:29:39Z</time></trkpt><trkpt lat="46.054406585305074" lon="8.083827128863838"><ele>1311.9999999999998</ele><time>2026-04-26T10:29:46Z</time></trkpt><trkpt lat="46.05437349888856" lon="8.083732607230022"><ele>1312.0</ele><time>2026-04-26T10:29:53.001Z</time></trkpt><trkpt lat="46.054325295427134" lon="8.083655110054575"><ele>1312.0</ele><time>2026-04-26T10:30:00.001Z</time></trkpt><trkpt lat="46.05425442915002" lon="8.083618439058911"><ele>1312.0</ele><time>2026-04-26T10:30:06.001Z</time></trkpt><trkpt lat="46.054185038590965" lon="8.083605501976624"><ele>1312.0</ele><time>2026-04-26T10:30:15.001Z</time></trkpt><trkpt lat="46.05411314520723" lon="8.083605564657221"><ele>1311.9999999999998</ele><time>2026-04-26T10:30:27.001Z</time></trkpt><trkpt lat="46.05404265936801" lon="8.083596221907571"><ele>1312.0</ele><time>2026-04-26T10:30:38.001Z</time></trkpt><trkpt lat="46.05397825449901" lon="8.083571731341541"><ele>1310.8571428571427</ele><time>2026-04-26T10:30:46.001Z</time></trkpt><trkpt lat="46.053921931725895" lon="8.083516333140974"><ele>1309.7142857142858</ele><time>2026-04-26T10:30:54.001Z</time></trkpt><trkpt lat="46.05386409133333" lon="8.083452374120201"><ele>1308.5714285714284</ele><time>2026-04-26T10:31:02.001Z</time></trkpt><trkpt lat="46.05380206079863" lon="8.083424142588049"><ele>1307.4285714285713</ele><time>2026-04-26T10:31:11.001Z</time></trkpt><trkpt lat="46.05374179385718" lon="8.083378449711493"><ele>1306.2857142857142</ele><time>2026-04-26T10:31:20Z</time></trkpt><trkpt lat="46.05369262226258" lon="8.08331057482958"><ele>1305.142857142857</ele><time>2026-04-26T10:31:29Z</time></trkpt><trkpt lat="46.05365219407035" lon="8.083229863633964"><ele>1304.0</ele><time>2026-04-26T10:31:41Z</time></trkpt><trkpt lat="46.05361690991019" lon="8.083136923179156"><ele>1309.7142857142858</ele><time>2026-04-26T10:31:57Z</time></trkpt><trkpt lat="46.053553812071094" lon="8.083113946566272"><ele>1315.4285714285713</ele><time>2026-04-26T10:32:36Z</time></trkpt><trkpt lat="46.05348416160119" lon="8.083076262990428"><ele>1321.142857142857</ele><time>2026-04-26T10:32:49Z</time></trkpt><trkpt lat="46.053419605764674" lon="8.083052939148278"><ele>1326.857142857143</ele><time>2026-04-26T10:32:59Z</time></trkpt><trkpt lat="46.05336435641909" lon="8.082996470760882"><ele>1332.5714285714284</ele><time>2026-04-26T10:33:10Z</time></trkpt><trkpt lat="46.05330279210558" lon="8.082958986484474"><ele>1338.2857142857142</ele><time>2026-04-26T10:33:16Z</time></trkpt><trkpt lat="46.0532387571968" lon="8.082940615933222"><ele>1344.0</ele><time>2026-04-26T10:33:21Z</time></trkpt><trkpt lat="46.05317692787459" lon="8.082908734107614"><ele>1344.0</ele><time>2026-04-26T10:33:29Z</time></trkpt><trkpt lat="46.05311214919683" lon="8.082886267979008"><ele>1344.0</ele><time>2026-04-26T10:33:37Z</time></trkpt><trkpt lat="46.0530383197393" lon="8.0828975036177"><ele>1344.0</ele><time>2026-04-26T10:33:43Z</time></trkpt><trkpt lat="46.05297373193971" lon="8.082890420174289"><ele>1344.0</ele><time>2026-04-26T10:33:49Z</time></trkpt><trkpt lat="46.05290397764839" lon="8.082891817306594"><ele>1344.0</ele><time>2026-04-26T10:33:56Z</time></trkpt><trkpt lat="46.05283632812118" lon="8.082908463271519"><ele>1344.0</ele><time>2026-04-26T10:34:04Z</time></trkpt><trkpt lat="46.05276455820806" lon="8.08291278130179"><ele>1344.0</ele><time>2026-04-26T10:34:13Z</time></trkpt><trkpt lat="46.05269448598717" lon="8.082879787394956"><ele>1344.0</ele><time>2026-04-26T10:34:22Z</time></trkpt><trkpt lat="46.052631281350585" lon="8.082848094011865"><ele>1344.0</ele><time>2026-04-26T10:34:29Z</time></trkpt><trkpt lat="46.05256757081905" lon="8.082846002222476"><ele>1344.0</ele><time>2026-04-26T10:34:38Z</time></trkpt><trkpt lat="46.05249817985495" lon="8.08282114277765"><ele>1344.0</ele><time>2026-04-26T10:34:45Z</time></trkpt><trkpt lat="46.05243177746234" lon="8.082790926793484"><ele>1344.0</ele><time>2026-04-26T10:34:52Z</time></trkpt><trkpt lat="46.052355419562076" lon="8.082731513819619"><ele>1344.0</ele><time>2026-04-26T10:35:10Z</time></trkpt><trkpt lat="46.05229057897307" lon="8.082691791298492"><ele>1344.0</ele><time>2026-04-26T10:35:15Z</time></trkpt><trkpt lat="46.0522262118776" lon="8.082662320284333"><ele>1344.4285714285713</ele><time>2026-04-26T10:35:20Z</time></trkpt><trkpt lat="46.05218346959165" lon="8.082595124344543"><ele>1344.857142857143</ele><time>2026-04-26T10:35:38Z</time></trkpt><trkpt lat="46.052124004968604" lon="8.082545946251457"><ele>1345.2857142857142</ele><time>2026-04-26T10:35:44Z</time></trkpt><trkpt lat="46.05210108297947" lon="8.082460231240104"><ele>1345.7142857142858</ele><time>2026-04-26T10:35:52Z</time></trkpt><trkpt lat="46.052050149405666" lon="8.082399899484559"><ele>1346.142857142857</ele><time>2026-04-26T10:36:00Z</time></trkpt><trkpt lat="46.05198261424709" lon="8.082347226551773"><ele>1346.5714285714284</ele><time>2026-04-26T10:36:07Z</time></trkpt><trkpt lat="46.05195650013349" lon="8.082263307257529"><ele>1347.0</ele><time>2026-04-26T10:36:15Z</time></trkpt><trkpt lat="46.05192198697578" lon="8.08218380222489"><ele>1346.9999999999998</ele><time>2026-04-26T10:36:24Z</time></trkpt><trkpt lat="46.05188426463685" lon="8.082101469924757"><ele>1347.0</ele><time>2026-04-26T10:36:34Z</time></trkpt><trkpt lat="46.05185082376736" lon="8.082017746881451"><ele>1347.0</ele><time>2026-04-26T10:36:45Z</time></trkpt><trkpt lat="46.0518084628268" lon="8.08193982488296"><ele>1347.0</ele><time>2026-04-26T10:36:52Z</time></trkpt><trkpt lat="46.051761964523266" lon="8.081870124356692"><ele>1347.0</ele><time>2026-04-26T10:37:02Z</time></trkpt><trkpt lat="46.05171964259939" lon="8.081796667706238"><ele>1346.9999999999998</ele><time>2026-04-26T10:37:13Z</time></trkpt><trkpt lat="46.05167976500622" lon="8.081714999107206"><ele>1347.0</ele><time>2026-04-26T10:37:26Z</time></trkpt><trkpt lat="46.05163951669217" lon="8.081637842716232"><ele>1346.8571428571427</ele><time>2026-04-26T10:37:36Z</time></trkpt><trkpt lat="46.05160402006796" lon="8.081550039989395"><ele>1346.7142857142858</ele><time>2026-04-26T10:37:47Z</time></trkpt><trkpt lat="46.05155786087224" lon="8.081486021640226"><ele>1346.5714285714284</ele><time>2026-04-26T10:37:53Z</time></trkpt><trkpt lat="46.05149804610291" lon="8.08144395121304"><ele>1346.4285714285713</ele><time>2026-04-26T10:38:01Z</time></trkpt><trkpt lat="46.05144327307838" lon="8.081384021152"><ele>1346.2857142857142</ele><time>2026-04-26T10:38:08Z</time></trkpt><trkpt lat="46.05139244462922" lon="8.08131912601958"><ele>1346.142857142857</ele><time>2026-04-26T10:38:14Z</time></trkpt><trkpt lat="46.05134720658021" lon="8.08124574283936"><ele>1346.0</ele><time>2026-04-26T10:38:21Z</time></trkpt><trkpt lat="46.051307205795844" lon="8.081155394275315"><ele>1346.0</ele><time>2026-04-26T10:38:28Z</time></trkpt><trkpt lat="46.051277992026414" lon="8.081071604493054"><ele>1346.0</ele><time>2026-04-26T10:38:34Z</time></trkpt><trkpt lat="46.05121321120136" lon="8.081042924276142"><ele>1346.0</ele><time>2026-04-26T10:38:41Z</time></trkpt><trkpt lat="46.051158063931155" lon="8.080998417353033"><ele>1346.0</ele><time>2026-04-26T10:38:47Z</time></trkpt><trkpt lat="46.05110789959697" lon="8.080941261634345"><ele>1346.0</ele><time>2026-04-26T10:38:53Z</time></trkpt><trkpt lat="46.051055168304316" lon="8.08088942388276"><ele>1346.0</ele><time>2026-04-26T10:38:59Z</time></trkpt><trkpt lat="46.05100475435793" lon="8.080826092295382"><ele>1346.0</ele><time>2026-04-26T10:39:06Z</time></trkpt><trkpt lat="46.0509576485525" lon="8.080755232685313"><ele>1344.4285714285716</ele><time>2026-04-26T10:39:12.001Z</time></trkpt><trkpt lat="46.05091925073116" lon="8.080679047460919"><ele>1342.8571428571427</ele><time>2026-04-26T10:39:18.001Z</time></trkpt><trkpt lat="46.05086820319464" lon="8.080613016497363"><ele>1341.2857142857142</ele><time>2026-04-26T10:39:25.001Z</time></trkpt><trkpt lat="46.050811781038334" lon="8.08056732193489"><ele>1339.7142857142858</ele><time>2026-04-26T10:39:31.001Z</time></trkpt><trkpt lat="46.05074550078097" lon="8.080519342116993"><ele>1338.1428571428573</ele><time>2026-04-26T10:39:37.001Z</time></trkpt><trkpt lat="46.05068296506951" lon="8.080470694290494"><ele>1336.5714285714284</ele><time>2026-04-26T10:39:43.001Z</time></trkpt><trkpt lat="46.05061750236849" lon="8.08041052131807"><ele>1335.0</ele><time>2026-04-26T10:39:49.001Z</time></trkpt><trkpt lat="46.050552685373475" lon="8.080361366311095"><ele>1335.0</ele><time>2026-04-26T10:39:56.001Z</time></trkpt><trkpt lat="46.05049867616588" lon="8.080309105122033"><ele>1335.0</ele><time>2026-04-26T10:40:02.001Z</time></trkpt><trkpt lat="46.050441008761965" lon="8.080234641491126"><ele>1335.0</ele><time>2026-04-26T10:40:09.001Z</time></trkpt><trkpt lat="46.050384056074385" lon="8.08015960522647"><ele>1335.0</ele><time>2026-04-26T10:40:16.001Z</time></trkpt><trkpt lat="46.050334374294415" lon="8.080096285830535"><ele>1335.0</ele><time>2026-04-26T10:40:22.001Z</time></trkpt><trkpt lat="46.0502829292639" lon="8.080027391801138"><ele>1335.0</ele><time>2026-04-26T10:40:30.001Z</time></trkpt><trkpt lat="46.05023228251142" lon="8.079968616832405"><ele>1335.0</ele><time>2026-04-26T10:40:36.001Z</time></trkpt><trkpt lat="46.050194406938694" lon="8.079895196827716"><ele>1331.142857142857</ele><time>2026-04-26T10:40:42.001Z</time></trkpt><trkpt lat="46.05015275057456" lon="8.079816963721537"><ele>1327.2857142857144</ele><time>2026-04-26T10:40:49Z</time></trkpt><trkpt lat="46.050097705468" lon="8.079762620569808"><ele>1323.4285714285716</ele><time>2026-04-26T10:40:55Z</time></trkpt><trkpt lat="46.05003607902396" lon="8.079715129361299"><ele>1319.5714285714284</ele><time>2026-04-26T10:41:02Z</time></trkpt><trkpt lat="46.049967882334634" lon="8.079625594245252"><ele>1315.7142857142858</ele><time>2026-04-26T10:41:32Z</time></trkpt><trkpt lat="46.04992545609241" lon="8.079553295904937"><ele>1311.857142857143</ele><time>2026-04-26T10:41:38Z</time></trkpt><trkpt lat="46.049875942314245" lon="8.079474187720878"><ele>1308.0</ele><time>2026-04-26T10:41:45Z</time></trkpt><trkpt lat="46.04983996675182" lon="8.0793885236837"><ele>1308.0</ele><time>2026-04-26T10:41:51Z</time></trkpt><trkpt lat="46.04981191441358" lon="8.079297152526474"><ele>1308.0</ele><time>2026-04-26T10:41:57Z</time></trkpt><trkpt lat="46.04977078614264" lon="8.079219459166978"><ele>1308.0</ele><time>2026-04-26T10:42:03Z</time></trkpt><trkpt lat="46.049724663226336" lon="8.079153177143354"><ele>1308.0</ele><time>2026-04-26T10:42:09Z</time></trkpt><trkpt lat="46.049697949070584" lon="8.079055330589995"><ele>1308.0</ele><time>2026-04-26T10:42:15Z</time></trkpt><trkpt lat="46.04966700878201" lon="8.078975084044814"><ele>1308.0</ele><time>2026-04-26T10:42:21Z</time></trkpt><trkpt lat="46.04963078856495" lon="8.078893233776835"><ele>1308.0</ele><time>2026-04-26T10:42:26Z</time></trkpt><trkpt lat="46.04960358670127" lon="8.078803122636096"><ele>1312.0</ele><time>2026-04-26T10:42:31Z</time></trkpt><trkpt lat="46.04958045142712" lon="8.078715413678003"><ele>1316.0</ele><time>2026-04-26T10:42:37Z</time></trkpt><trkpt lat="46.049560432663334" lon="8.078619954406108"><ele>1320.0</ele><time>2026-04-26T10:42:43Z</time></trkpt><trkpt lat="46.0495311326409" lon="8.07853388576193"><ele>1324.0</ele><time>2026-04-26T10:42:51.999Z</time></trkpt><trkpt lat="46.04950710124816" lon="8.07844071971066"><ele>1328.0</ele><time>2026-04-26T10:42:57.999Z</time></trkpt><trkpt lat="46.04948085329208" lon="8.078348453368225"><ele>1332.0</ele><time>2026-04-26T10:43:03.999Z</time></trkpt><trkpt lat="46.04945263100367" lon="8.078247219450361"><ele>1336.0</ele><time>2026-04-26T10:43:09.999Z</time></trkpt><trkpt lat="46.04943675604233" lon="8.078139650954432"><ele>1337.0</ele><time>2026-04-26T10:43:18Z</time></trkpt><trkpt lat="46.049443252623185" lon="8.078046855274048"><ele>1338.0</ele><time>2026-04-26T10:43:26Z</time></trkpt><trkpt lat="46.049417017914124" lon="8.07794621794671"><ele>1339.0</ele><time>2026-04-26T10:43:30Z</time></trkpt><trkpt lat="46.04941647972634" lon="8.077854325785685"><ele>1340.0</ele><time>2026-04-26T10:43:34Z</time></trkpt><trkpt lat="46.04942718240832" lon="8.077760056736672"><ele>1341.0</ele><time>2026-04-26T10:43:40Z</time></trkpt><trkpt lat="46.04938411798191" lon="8.07769030982333"><ele>1342.0</ele><time>2026-04-26T10:43:46Z</time></trkpt><trkpt lat="46.04932016523016" lon="8.077697539508023"><ele>1343.0</ele><time>2026-04-26T10:43:52Z</time></trkpt><trkpt lat="46.049253847573866" lon="8.077699663819516"><ele>1343.0</ele><time>2026-04-26T10:43:58Z</time></trkpt><trkpt lat="46.049176940867454" lon="8.077691976193787"><ele>1343.0</ele><time>2026-04-26T10:44:05Z</time></trkpt><trkpt lat="46.04908195857531" lon="8.07773075923281"><ele>1343.0</ele><time>2026-04-26T10:45:17Z</time></trkpt><trkpt lat="46.04915278518953" lon="8.077713182156268"><ele>1343.0</ele><time>2026-04-26T10:48:20Z</time></trkpt><trkpt lat="46.04922415270824" lon="8.077718240838147"><ele>1343.0</ele><time>2026-04-26T10:48:26Z</time></trkpt><trkpt lat="46.049302950283945" lon="8.077734949195605"><ele>1343.0</ele><time>2026-04-26T10:48:32Z</time></trkpt><trkpt lat="46.04937025816717" lon="8.077731583636439"><ele>1343.0</ele><time>2026-04-26T10:48:38Z</time></trkpt><trkpt lat="46.049438617407326" lon="8.077720737243931"><ele>1343.0</ele><time>2026-04-26T10:48:44Z</time></trkpt><trkpt lat="46.04946216295315" lon="8.077635001066957"><ele>1343.0</ele><time>2026-04-26T10:48:49Z</time></trkpt><trkpt lat="46.049448555652205" lon="8.077542040889412"><ele>1343.0</ele><time>2026-04-26T10:48:55Z</time></trkpt><trkpt lat="46.04942077728562" lon="8.077437633984635"><ele>1343.0</ele><time>2026-04-26T10:49:02Z</time></trkpt><trkpt lat="46.049393395556315" lon="8.077347633886038"><ele>1343.0</ele><time>2026-04-26T10:49:13Z</time></trkpt><trkpt lat="46.049372437432005" lon="8.077252123759319"><ele>1343.0</ele><time>2026-04-26T10:49:19Z</time></trkpt><trkpt lat="46.049347067310364" lon="8.077154106385622"><ele>1345.142857142857</ele><time>2026-04-26T10:49:26Z</time></trkpt><trkpt lat="46.049323319901816" lon="8.077062382902215"><ele>1347.2857142857142</ele><time>2026-04-26T10:49:32Z</time></trkpt><trkpt lat="46.049300132392936" lon="8.076972641210673"><ele>1349.4285714285716</ele><time>2026-04-26T10:49:37Z</time></trkpt><trkpt lat="46.04928236815382" lon="8.076880319908458"><ele>1351.5714285714284</ele><time>2026-04-26T10:49:43Z</time></trkpt><trkpt lat="46.04927940573108" lon="8.076781724288328"><ele>1353.7142857142858</ele><time>2026-04-26T10:49:49Z</time></trkpt><trkpt lat="46.049301345607034" lon="8.076684171488091"><ele>1355.857142857143</ele><time>2026-04-26T10:49:55Z</time></trkpt><trkpt lat="46.049291695013466" lon="8.0765849044931"><ele>1358.0</ele><time>2026-04-26T10:50:01Z</time></trkpt><trkpt lat="46.04926202745718" lon="8.076485973199137"><ele>1357.6666666666667</ele><time>2026-04-26T10:50:08Z</time></trkpt><trkpt lat="46.04921783801989" lon="8.076403763883762"><ele>1357.3333333333333</ele><time>2026-04-26T10:50:17Z</time></trkpt><trkpt lat="46.0490802116896" lon="8.076225079078277"><ele>1357.0</ele><time>2026-04-26T10:51:01.818Z</time></trkpt><trkpt lat="46.04868343415764" lon="8.075753302000448"><ele>1357.0</ele><time>2026-04-26T10:51:32.01Z</time></trkpt><trkpt lat="46.04850462536179" lon="8.075400818950929"><ele>1357.0</ele><time>2026-04-26T10:51:33.01Z</time></trkpt><trkpt lat="46.048505373461396" lon="8.07530868325139"><ele>1357.0</ele><time>2026-04-26T10:51:39Z</time></trkpt><trkpt lat="46.048517757396354" lon="8.075219606766689"><ele>1357.0</ele><time>2026-04-26T10:51:46.999Z</time></trkpt><trkpt lat="46.04848312067916" lon="8.075139734559512"><ele>1357.0</ele><time>2026-04-26T10:51:53.999Z</time></trkpt><trkpt lat="46.04848146619542" lon="8.075042700841577"><ele>1357.0</ele><time>2026-04-26T10:51:59.999Z</time></trkpt><trkpt lat="46.04847351028329" lon="8.074939352026833"><ele>1357.0</ele><time>2026-04-26T10:52:07.999Z</time></trkpt><trkpt lat="46.0484567313562" lon="8.074835204704746"><ele>1357.0</ele><time>2026-04-26T10:52:13.999Z</time></trkpt><trkpt lat="46.04843497296276" lon="8.074739045147776"><ele>1357.0</ele><time>2026-04-26T10:52:19.999Z</time></trkpt><trkpt lat="46.04841373548838" lon="8.074640081241125"><ele>1357.0</ele><time>2026-04-26T10:52:24.999Z</time></trkpt><trkpt lat="46.04839026798978" lon="8.074540081157448"><ele>1357.0</ele><time>2026-04-26T10:52:29.999Z</time></trkpt><trkpt lat="46.04836726108936" lon="8.074434679514022"><ele>1358.5714285714284</ele><time>2026-04-26T10:52:35.999Z</time></trkpt><trkpt lat="46.048336154646314" lon="8.074355189907052"><ele>1360.142857142857</ele><time>2026-04-26T10:52:41.999Z</time></trkpt><trkpt lat="46.04832237706064" lon="8.07424675988396"><ele>1361.7142857142858</ele><time>2026-04-26T10:52:46.999Z</time></trkpt><trkpt lat="46.04829955847719" lon="8.07416091114704"><ele>1363.2857142857142</ele><time>2026-04-26T10:52:51.999Z</time></trkpt><trkpt lat="46.048278852481005" lon="8.074066351816068"><ele>1364.857142857143</ele><time>2026-04-26T10:52:56.999Z</time></trkpt><trkpt lat="46.048259200494954" lon="8.073977901680001"><ele>1366.4285714285713</ele><time>2026-04-26T10:53:02Z</time></trkpt><trkpt lat="46.04822212339931" lon="8.073900549532127"><ele>1368.0</ele><time>2026-04-26T10:53:09Z</time></trkpt><trkpt lat="46.04819447662986" lon="8.073807908254613"><ele>1362.5714285714284</ele><time>2026-04-26T10:53:17Z</time></trkpt><trkpt lat="46.048137808720526" lon="8.073758730543881"><ele>1357.142857142857</ele><time>2026-04-26T10:53:25Z</time></trkpt><trkpt lat="46.04808545344624" lon="8.0736615775155"><ele>1351.7142857142858</ele><time>2026-04-26T10:55:54Z</time></trkpt><trkpt lat="46.04808481768125" lon="8.073568817640753"><ele>1346.2857142857142</ele><time>2026-04-26T10:56:04Z</time></trkpt><trkpt lat="46.048071486635536" lon="8.073473627971525"><ele>1340.857142857143</ele><time>2026-04-26T10:56:12Z</time></trkpt><trkpt lat="46.04805868547257" lon="8.073380037765508"><ele>1335.4285714285713</ele><time>2026-04-26T10:56:19Z</time></trkpt><trkpt lat="46.04808942804714" lon="8.073295991071223"><ele>1330.0</ele><time>2026-04-26T10:56:26Z</time></trkpt><trkpt lat="46.04810489314727" lon="8.073201887747308"><ele>1330.0</ele><time>2026-04-26T10:56:31Z</time></trkpt><trkpt lat="46.04812068712627" lon="8.073109225170441"><ele>1330.0</ele><time>2026-04-26T10:56:36Z</time></trkpt><trkpt lat="46.0481511010706" lon="8.073024549653383"><ele>1330.0</ele><time>2026-04-26T10:56:42Z</time></trkpt><trkpt lat="46.048174616860685" lon="8.07293932059809"><ele>1330.0</ele><time>2026-04-26T10:56:48Z</time></trkpt><trkpt lat="46.04818727110457" lon="8.072849758194284"><ele>1330.0</ele><time>2026-04-26T10:58:59.001Z</time></trkpt><trkpt lat="46.04815166082056" lon="8.072751285921541"><ele>1330.0</ele><time>2026-04-26T10:59:04.001Z</time></trkpt><trkpt lat="46.04811745058206" lon="8.072654778860127"><ele>1330.0</ele><time>2026-04-26T10:59:10.001Z</time></trkpt><trkpt lat="46.04809045563981" lon="8.072566982345997"><ele>1330.0</ele><time>2026-04-26T10:59:15.001Z</time></trkpt><trkpt lat="46.04814770099053" lon="8.072514791122234"><ele>1330.0</ele><time>2026-04-26T10:59:21.001Z</time></trkpt><trkpt lat="46.048150120631234" lon="8.07241957248073"><ele>1330.0</ele><time>2026-04-26T10:59:27.001Z</time></trkpt><trkpt lat="46.04811629110437" lon="8.072318756494024"><ele>1330.0</ele><time>2026-04-26T10:59:33.001Z</time></trkpt><trkpt lat="46.048090223256935" lon="8.072235227707825"><ele>1330.0</ele><time>2026-04-26T10:59:38.001Z</time></trkpt><trkpt lat="46.04811938440586" lon="8.072130716449697"><ele>1330.0</ele><time>2026-04-26T10:59:44.001Z</time></trkpt><trkpt lat="46.04815626192" lon="8.072039040008786"><ele>1330.0</ele><time>2026-04-26T10:59:50.001Z</time></trkpt><trkpt lat="46.048171891991664" lon="8.07194856531624"><ele>1332.7142857142858</ele><time>2026-04-26T10:59:56Z</time></trkpt><trkpt lat="46.0481386004894" lon="8.071855692248695"><ele>1335.4285714285716</ele><time>2026-04-26T11:00:13Z</time></trkpt><trkpt lat="46.04808626760655" lon="8.071792531423732"><ele>1338.142857142857</ele><time>2026-04-26T11:00:20Z</time></trkpt><trkpt lat="46.04803342129059" lon="8.071720791831902"><ele>1340.857142857143</ele><time>2026-04-26T11:00:26Z</time></trkpt><trkpt lat="46.04797458296585" lon="8.071674034008998"><ele>1343.5714285714287</ele><time>2026-04-26T11:00:35Z</time></trkpt><trkpt lat="46.04793107763065" lon="8.071607435865742"><ele>1346.2857142857142</ele><time>2026-04-26T11:01:01Z</time></trkpt><trkpt lat="46.04788728330036" lon="8.071533170368241"><ele>1349.0</ele><time>2026-04-26T11:01:09Z</time></trkpt><trkpt lat="46.04781797315252" lon="8.071504855921884"><ele>1353.0</ele><time>2026-04-26T11:01:21Z</time></trkpt><trkpt lat="46.047757752335194" lon="8.071457142722696"><ele>1357.0</ele><time>2026-04-26T11:01:27Z</time></trkpt><trkpt lat="46.04769173502548" lon="8.071447770852565"><ele>1361.0</ele><time>2026-04-26T11:01:34Z</time></trkpt><trkpt lat="46.04763948367127" lon="8.071391240445143"><ele>1365.0</ele><time>2026-04-26T11:01:56Z</time></trkpt><trkpt lat="46.04757705865252" lon="8.071405651122735"><ele>1369.0</ele><time>2026-04-26T11:02:25Z</time></trkpt><trkpt lat="46.04750493526997" lon="8.07140247988487"><ele>1373.0</ele><time>2026-04-26T11:03:00Z</time></trkpt><trkpt lat="46.04744166270393" lon="8.071428963075002"><ele>1377.0</ele><time>2026-04-26T11:03:14Z</time></trkpt><trkpt lat="46.0473734167131" lon="8.071442756298719"><ele>1377.0</ele><time>2026-04-26T11:03:20Z</time></trkpt><trkpt lat="46.047310608557574" lon="8.071422927074185"><ele>1377.0</ele><time>2026-04-26T11:03:26Z</time></trkpt><trkpt lat="46.04724160012942" lon="8.071394470285053"><ele>1377.0</ele><time>2026-04-26T11:03:32Z</time></trkpt><trkpt lat="46.04717706227363" lon="8.071387079860918"><ele>1377.0</ele><time>2026-04-26T11:03:38Z</time></trkpt><trkpt lat="46.04711746376244" lon="8.071343232937377"><ele>1377.0</ele><time>2026-04-26T11:03:44Z</time></trkpt><trkpt lat="46.047062388105815" lon="8.071281259047323"><ele>1377.0</ele><time>2026-04-26T11:03:50Z</time></trkpt><trkpt lat="46.04699514905401" lon="8.071241679390424"><ele>1377.0</ele><time>2026-04-26T11:03:56Z</time></trkpt><trkpt lat="46.046932993283804" lon="8.071217364016393"><ele>1377.0</ele><time>2026-04-26T11:04:01Z</time></trkpt><trkpt lat="46.04686798653268" lon="8.071212729406462"><ele>1377.0</ele><time>2026-04-26T11:04:06Z</time></trkpt><trkpt lat="46.04680616200386" lon="8.071234515955785"><ele>1377.0</ele><time>2026-04-26T11:04:11Z</time></trkpt><trkpt lat="46.046744117490576" lon="8.071271252503555"><ele>1377.0</ele><time>2026-04-26T11:04:16Z</time></trkpt><trkpt lat="46.046671907310476" lon="8.071301188084126"><ele>1377.0</ele><time>2026-04-26T11:04:22Z</time></trkpt><trkpt lat="46.04660042582967" lon="8.071314090813177"><ele>1377.0</ele><time>2026-04-26T11:04:28Z</time></trkpt><trkpt lat="46.04654051656205" lon="8.07137315507747"><ele>1377.0</ele><time>2026-04-26T11:04:33Z</time></trkpt><trkpt lat="46.04646731034277" lon="8.071407729907161"><ele>1378.857142857143</ele><time>2026-04-26T11:04:38Z</time></trkpt><trkpt lat="46.046397232594956" lon="8.071440582597194"><ele>1380.7142857142858</ele><time>2026-04-26T11:04:44Z</time></trkpt><trkpt lat="46.04633316440133" lon="8.07148636712991"><ele>1382.5714285714287</ele><time>2026-04-26T11:04:50Z</time></trkpt><trkpt lat="46.04626853515952" lon="8.071518701675014"><ele>1384.4285714285716</ele><time>2026-04-26T11:04:56Z</time></trkpt><trkpt lat="46.04619552601209" lon="8.071542580863612"><ele>1386.2857142857142</ele><time>2026-04-26T11:05:03Z</time></trkpt><trkpt lat="46.04613630646981" lon="8.071577605743526"><ele>1388.1428571428573</ele><time>2026-04-26T11:05:09Z</time></trkpt><trkpt lat="46.04607130850756" lon="8.071594975423444"><ele>1390.0</ele><time>2026-04-26T11:05:14Z</time></trkpt><trkpt lat="46.04600555407369" lon="8.071638973852549"><ele>1389.1428571428573</ele><time>2026-04-26T11:05:21Z</time></trkpt><trkpt lat="46.04594705271173" lon="8.071675379536138"><ele>1388.2857142857142</ele><time>2026-04-26T11:05:27Z</time></trkpt><trkpt lat="46.045888321991015" lon="8.071732483073276"><ele>1387.4285714285716</ele><time>2026-04-26T11:05:33Z</time></trkpt><trkpt lat="46.04583726088294" lon="8.0717906056237"><ele>1386.5714285714287</ele><time>2026-04-26T11:05:40Z</time></trkpt><trkpt lat="46.04577221350332" lon="8.07182038476828"><ele>1385.7142857142858</ele><time>2026-04-26T11:05:46Z</time></trkpt><trkpt lat="46.04570812922591" lon="8.071850964991702"><ele>1384.857142857143</ele><time>2026-04-26T11:05:53Z</time></trkpt><trkpt lat="46.04563807257214" lon="8.071867165330062"><ele>1384.0</ele><time>2026-04-26T11:06:00Z</time></trkpt><trkpt lat="46.045567148920604" lon="8.071897281919355"><ele>1384.0</ele><time>2026-04-26T11:06:06Z</time></trkpt><trkpt lat="46.045497033504276" lon="8.07191591867695"><ele>1384.0</ele><time>2026-04-26T11:06:13Z</time></trkpt><trkpt lat="46.04543898920474" lon="8.07195624598523"><ele>1384.0</ele><time>2026-04-26T11:06:19Z</time></trkpt><trkpt lat="46.04536110232634" lon="8.071967951907427"><ele>1384.0</ele><time>2026-04-26T11:06:27.001Z</time></trkpt><trkpt lat="46.04529338083623" lon="8.071984168254593"><ele>1384.0</ele><time>2026-04-26T11:06:35.001Z</time></trkpt><trkpt lat="46.0452232382985" lon="8.071986426519594"><ele>1384.0</ele><time>2026-04-26T11:06:43.001Z</time></trkpt><trkpt lat="46.04515464865879" lon="8.072008547739904"><ele>1384.0</ele><time>2026-04-26T11:06:50.001Z</time></trkpt><trkpt lat="46.04509364398653" lon="8.072041590210056"><ele>1384.0</ele><time>2026-04-26T11:06:56.001Z</time></trkpt><trkpt lat="46.04503303100524" lon="8.072092230985213"><ele>1384.0</ele><time>2026-04-26T11:07:02.001Z</time></trkpt><trkpt lat="46.044962295067016" lon="8.072103992294911"><ele>1384.0</ele><time>2026-04-26T11:07:08Z</time></trkpt><trkpt lat="46.04489441805358" lon="8.072118421216933"><ele>1384.0</ele><time>2026-04-26T11:07:15Z</time></trkpt><trkpt lat="46.04482851820636" lon="8.072125302527938"><ele>1384.0</ele><time>2026-04-26T11:07:21Z</time></trkpt><trkpt lat="46.04476623055016" lon="8.07210451521307"><ele>1384.0</ele><time>2026-04-26T11:07:27Z</time></trkpt><trkpt lat="46.044700168668975" lon="8.072091862323232"><ele>1384.0</ele><time>2026-04-26T11:07:33Z</time></trkpt><trkpt lat="46.04463208277097" lon="8.072099625987562"><ele>1384.4285714285713</ele><time>2026-04-26T11:07:39Z</time></trkpt><trkpt lat="46.04456658870896" lon="8.072099800383494"><ele>1384.857142857143</ele><time>2026-04-26T11:07:46Z</time></trkpt><trkpt lat="46.044496410832885" lon="8.072084308938052"><ele>1385.2857142857142</ele><time>2026-04-26T11:07:52Z</time></trkpt><trkpt lat="46.04443329285939" lon="8.07208602393682"><ele>1385.7142857142858</ele><time>2026-04-26T11:07:58Z</time></trkpt><trkpt lat="46.04437262630416" lon="8.072045301591121"><ele>1386.142857142857</ele><time>2026-04-26T11:08:04Z</time></trkpt><trkpt lat="46.04430672431185" lon="8.072046452953614"><ele>1386.5714285714287</ele><time>2026-04-26T11:08:09Z</time></trkpt><trkpt lat="46.04424350991007" lon="8.07202945075887"><ele>1387.0</ele><time>2026-04-26T11:08:15Z</time></trkpt><trkpt lat="46.04417323516314" lon="8.072029462194003"><ele>1386.2857142857142</ele><time>2026-04-26T11:08:21Z</time></trkpt><trkpt lat="46.044106390565865" lon="8.072025685001929"><ele>1385.5714285714284</ele><time>2026-04-26T11:08:27.001Z</time></trkpt><trkpt lat="46.04403693111088" lon="8.072037005488092"><ele>1384.8571428571427</ele><time>2026-04-26T11:08:33.001Z</time></trkpt><trkpt lat="46.04396610233872" lon="8.072045520545416"><ele>1384.142857142857</ele><time>2026-04-26T11:08:40.001Z</time></trkpt><trkpt lat="46.04389675780408" lon="8.07206280829396"><ele>1383.4285714285713</ele><time>2026-04-26T11:08:46.001Z</time></trkpt><trkpt lat="46.04383499798119" lon="8.07208916206393"><ele>1382.7142857142856</ele><time>2026-04-26T11:08:51.001Z</time></trkpt><trkpt lat="46.04377023186142" lon="8.072120657629101"><ele>1382.0</ele><time>2026-04-26T11:08:56.001Z</time></trkpt><trkpt lat="46.04370433058006" lon="8.07210668519343"><ele>1381.9999999999998</ele><time>2026-04-26T11:09:02.001Z</time></trkpt><trkpt lat="46.043635618502606" lon="8.072135680329565"><ele>1382.0</ele><time>2026-04-26T11:09:08.001Z</time></trkpt><trkpt lat="46.04356807249615" lon="8.072135203434485"><ele>1382.0</ele><time>2026-04-26T11:09:14.001Z</time></trkpt><trkpt lat="46.04349763274475" lon="8.072144318305535"><ele>1382.0</ele><time>2026-04-26T11:09:20.001Z</time></trkpt><trkpt lat="46.043423450310584" lon="8.07213291076653"><ele>1382.0</ele><time>2026-04-26T11:09:26Z</time></trkpt><trkpt lat="46.043352788217746" lon="8.072124512254911"><ele>1381.9999999999998</ele><time>2026-04-26T11:09:32Z</time></trkpt><trkpt lat="46.043294919896084" lon="8.072084716107032"><ele>1382.0</ele><time>2026-04-26T11:09:37Z</time></trkpt><trkpt lat="46.04322056368675" lon="8.072065031414942"><ele>1379.5714285714284</ele><time>2026-04-26T11:09:43Z</time></trkpt><trkpt lat="46.04314875280251" lon="8.072065371286183"><ele>1377.142857142857</ele><time>2026-04-26T11:09:49Z</time></trkpt><trkpt lat="46.04307482880882" lon="8.07205274430768"><ele>1374.7142857142858</ele><time>2026-04-26T11:09:55Z</time></trkpt><trkpt lat="46.04300582049927" lon="8.07203825580528"><ele>1372.2857142857142</ele><time>2026-04-26T11:10:01Z</time></trkpt><trkpt lat="46.042936258467066" lon="8.072002372819627"><ele>1369.857142857143</ele><time>2026-04-26T11:10:07Z</time></trkpt><trkpt lat="46.04288164126735" lon="8.071956908662099"><ele>1367.4285714285713</ele><time>2026-04-26T11:10:12Z</time></trkpt><trkpt lat="46.04281108764219" lon="8.071943735111537"><ele>1365.0</ele><time>2026-04-26T11:10:18Z</time></trkpt><trkpt lat="46.04274340335387" lon="8.071957047521675"><ele>1365.0</ele><time>2026-04-26T11:10:23Z</time></trkpt><trkpt lat="46.042683702964496" lon="8.07189968765356"><ele>1365.0</ele><time>2026-04-26T11:10:29Z</time></trkpt><trkpt lat="46.042618324490626" lon="8.071846484666791"><ele>1365.0</ele><time>2026-04-26T11:10:35Z</time></trkpt><trkpt lat="46.04256080461605" lon="8.071799783410121"><ele>1365.0</ele><time>2026-04-26T11:10:40Z</time></trkpt><trkpt lat="46.042491598335694" lon="8.071762778885752"><ele>1365.0</ele><time>2026-04-26T11:10:46Z</time></trkpt><trkpt lat="46.04242431389526" lon="8.071726003457146"><ele>1365.0</ele><time>2026-04-26T11:10:52Z</time></trkpt><trkpt lat="46.042357779909494" lon="8.071694765657481"><ele>1365.0</ele><time>2026-04-26T11:10:58Z</time></trkpt><trkpt lat="46.042305955588006" lon="8.071637868946157"><ele>1363.7142857142858</ele><time>2026-04-26T11:11:04Z</time></trkpt><trkpt lat="46.04226368682736" lon="8.071568354678842"><ele>1362.4285714285716</ele><time>2026-04-26T11:11:09Z</time></trkpt><trkpt lat="46.04221309129441" lon="8.071505717299917"><ele>1361.142857142857</ele><time>2026-04-26T11:11:15Z</time></trkpt><trkpt lat="46.0421645251986" lon="8.071422399075638"><ele>1359.857142857143</ele><time>2026-04-26T11:11:21Z</time></trkpt><trkpt lat="46.04211371750019" lon="8.07133928066519"><ele>1358.5714285714287</ele><time>2026-04-26T11:11:27Z</time></trkpt><trkpt lat="46.04206743066617" lon="8.071275345564782"><ele>1357.2857142857142</ele><time>2026-04-26T11:11:32Z</time></trkpt><trkpt lat="46.04202334435259" lon="8.071202680803388"><ele>1356.0</ele><time>2026-04-26T11:11:37Z</time></trkpt><trkpt lat="46.04196203900195" lon="8.07114497579105"><ele>1356.0</ele><time>2026-04-26T11:11:43Z</time></trkpt><trkpt lat="46.041901894261386" lon="8.071100843702355"><ele>1356.0</ele><time>2026-04-26T11:11:49Z</time></trkpt><trkpt lat="46.04184944709068" lon="8.07102618411566"><ele>1356.0</ele><time>2026-04-26T11:11:56Z</time></trkpt><trkpt lat="46.04179460710982" lon="8.070962920467514"><ele>1356.0</ele><time>2026-04-26T11:12:14Z</time></trkpt><trkpt lat="46.041737841231075" lon="8.070898021979435"><ele>1356.0</ele><time>2026-04-26T11:12:20Z</time></trkpt><trkpt lat="46.041690513247914" lon="8.07083511119808"><ele>1356.0</ele><time>2026-04-26T11:12:26Z</time></trkpt><trkpt lat="46.04164635919207" lon="8.070766857062186"><ele>1356.0</ele><time>2026-04-26T11:12:31Z</time></trkpt><trkpt lat="46.04158861025459" lon="8.070706336244701"><ele>1357.7142857142856</ele><time>2026-04-26T11:12:38Z</time></trkpt><trkpt lat="46.04154860335133" lon="8.07061902271003"><ele>1359.4285714285716</ele><time>2026-04-26T11:12:42.999Z</time></trkpt><trkpt lat="46.04149150102279" lon="8.070556460880828"><ele>1361.142857142857</ele><time>2026-04-26T11:12:48.999Z</time></trkpt><trkpt lat="46.04146726390807" lon="8.070465568482394"><ele>1362.8571428571427</ele><time>2026-04-26T11:12:53.999Z</time></trkpt><trkpt lat="46.04139871750833" lon="8.07042635529748"><ele>1364.5714285714284</ele><time>2026-04-26T11:13:00Z</time></trkpt><trkpt lat="46.04132656579117" lon="8.07040132259768"><ele>1366.2857142857142</ele><time>2026-04-26T11:13:07Z</time></trkpt><trkpt lat="46.041302732684706" lon="8.070313830591978"><ele>1368.0</ele><time>2026-04-26T11:13:13Z</time></trkpt><trkpt lat="46.041254798131696" lon="8.070247743710949"><ele>1367.9999999999998</ele><time>2026-04-26T11:13:19Z</time></trkpt><trkpt lat="46.04118859559752" lon="8.070190004508893"><ele>1368.0</ele><time>2026-04-26T11:13:25Z</time></trkpt><trkpt lat="46.04113011304602" lon="8.070139933820325"><ele>1368.0</ele><time>2026-04-26T11:13:32Z</time></trkpt><trkpt lat="46.04107219940789" lon="8.070098646509289"><ele>1368.0</ele><time>2026-04-26T11:13:37Z</time></trkpt><trkpt lat="46.04101614056125" lon="8.070044253176084"><ele>1368.0</ele><time>2026-04-26T11:13:44Z</time></trkpt><trkpt lat="46.04093987226078" lon="8.070033149680283"><ele>1367.9999999999998</ele><time>2026-04-26T11:13:50Z</time></trkpt><trkpt lat="46.04087432142943" lon="8.07004206829901"><ele>1368.0</ele><time>2026-04-26T11:13:57Z</time></trkpt><trkpt lat="46.04080481683795" lon="8.070032071379847"><ele>1367.7142857142856</ele><time>2026-04-26T11:14:04Z</time></trkpt><trkpt lat="46.04073976238003" lon="8.07001637700544"><ele>1367.4285714285713</ele><time>2026-04-26T11:14:10Z</time></trkpt><trkpt lat="46.04067642804218" lon="8.070008070848308"><ele>1367.142857142857</ele><time>2026-04-26T11:14:17Z</time></trkpt><trkpt lat="46.04060720795776" lon="8.070013041674718"><ele>1366.8571428571427</ele><time>2026-04-26T11:14:23Z</time></trkpt><trkpt lat="46.040540589277555" lon="8.070011825179082"><ele>1366.5714285714284</ele><time>2026-04-26T11:14:27.999Z</time></trkpt><trkpt lat="46.040474813511004" lon="8.06998003906285"><ele>1366.2857142857142</ele><time>2026-04-26T11:14:35.999Z</time></trkpt><trkpt lat="46.04040929053594" lon="8.069948013236226"><ele>1366.0</ele><time>2026-04-26T11:14:42.999Z</time></trkpt><trkpt lat="46.04035098693367" lon="8.069906787580413"><ele>1371.2857142857142</ele><time>2026-04-26T11:14:47.999Z</time></trkpt><trkpt lat="46.040287629699385" lon="8.069878722139073"><ele>1376.5714285714284</ele><time>2026-04-26T11:14:53.999Z</time></trkpt><trkpt lat="46.04020876773529" lon="8.069861135557925"><ele>1381.8571428571427</ele><time>2026-04-26T11:15:01Z</time></trkpt><trkpt lat="46.04014386679805" lon="8.069857971546377"><ele>1387.142857142857</ele><time>2026-04-26T11:15:08Z</time></trkpt><trkpt lat="46.04008358373495" lon="8.069830701282063"><ele>1392.4285714285713</ele><time>2026-04-26T11:15:16Z</time></trkpt><trkpt lat="46.040021712069276" lon="8.069791218122834"><ele>1397.7142857142856</ele><time>2026-04-26T11:15:22Z</time></trkpt><trkpt lat="46.03996443476064" lon="8.069746104103164"><ele>1403.0</ele><time>2026-04-26T11:15:29Z</time></trkpt><trkpt lat="46.039904851469636" lon="8.069685893585385"><ele>1402.9999999999998</ele><time>2026-04-26T11:15:36Z</time></trkpt><trkpt lat="46.039842782452126" lon="8.069664760656892"><ele>1403.0</ele><time>2026-04-26T11:15:42Z</time></trkpt><trkpt lat="46.03978142810391" lon="8.069605102818947"><ele>1403.0</ele><time>2026-04-26T11:15:50Z</time></trkpt><trkpt lat="46.0397197434554" lon="8.06956512646491"><ele>1403.0</ele><time>2026-04-26T11:15:57Z</time></trkpt><trkpt lat="46.039651685081445" lon="8.069562204001151"><ele>1403.0</ele><time>2026-04-26T11:16:09Z</time></trkpt><trkpt lat="46.03958645673394" lon="8.069565364550586"><ele>1402.9999999999998</ele><time>2026-04-26T11:16:18Z</time></trkpt><trkpt lat="46.039528600780635" lon="8.069605930021904"><ele>1403.0</ele><time>2026-04-26T11:16:27Z</time></trkpt><trkpt lat="46.0394761621082" lon="8.069671883715847"><ele>1402.9999999999998</ele><time>2026-04-26T11:16:35Z</time></trkpt><trkpt lat="46.039413391007166" lon="8.069707068396015"><ele>1403.0</ele><time>2026-04-26T11:16:43Z</time></trkpt><trkpt lat="46.03934527580301" lon="8.069715088502365"><ele>1403.0</ele><time>2026-04-26T11:16:51Z</time></trkpt><trkpt lat="46.03928177894721" lon="8.069693550622427"><ele>1403.0</ele><time>2026-04-26T11:16:59Z</time></trkpt><trkpt lat="46.03921609821835" lon="8.069681518929215"><ele>1403.0</ele><time>2026-04-26T11:17:06Z</time></trkpt><trkpt lat="46.039149040346395" lon="8.069685616586245"><ele>1402.9999999999998</ele><time>2026-04-26T11:17:14Z</time></trkpt><trkpt lat="46.03908678953193" lon="8.06964435528888"><ele>1403.0</ele><time>2026-04-26T11:17:22Z</time></trkpt><trkpt lat="46.03904076853035" lon="8.06957291706056"><ele>1409.0</ele><time>2026-04-26T11:17:31Z</time></trkpt><trkpt lat="46.03897632571057" lon="8.06955696728489"><ele>1409.0</ele><time>2026-04-26T11:17:38Z</time></trkpt><trkpt lat="46.03890439577168" lon="8.069566621198243"><ele>1409.0</ele><time>2026-04-26T11:17:49Z</time></trkpt><trkpt lat="46.038837206543924" lon="8.069583499420457"><ele>1409.0</ele><time>2026-04-26T11:17:58Z</time></trkpt><trkpt lat="46.03877219560935" lon="8.069552301829193"><ele>1409.0</ele><time>2026-04-26T11:18:06Z</time></trkpt><trkpt lat="46.03870947142028" lon="8.069564169326098"><ele>1409.0</ele><time>2026-04-26T11:18:13Z</time></trkpt></trkseg><trkseg><trkpt lat="46.03738108682694" lon="8.070442777420428"><ele>1381.0</ele><time>2026-04-26T12:16:56.999Z</time></trkpt><trkpt lat="46.03744009922825" lon="8.070503612563138"><ele>1381.0</ele><time>2026-04-26T12:17:02.999Z</time></trkpt><trkpt lat="46.037479623242305" lon="8.07057437225057"><ele>1381.0</ele><time>2026-04-26T12:17:06.999Z</time></trkpt><trkpt lat="46.03750813437714" lon="8.070660400283852"><ele>1381.0</ele><time>2026-04-26T12:17:10.999Z</time></trkpt><trkpt lat="46.03752686071022" lon="8.070757722895214"><ele>1381.0</ele><time>2026-04-26T12:17:15.999Z</time></trkpt><trkpt lat="46.03760418630354" lon="8.07083609943135"><ele>1381.0</ele><time>2026-04-26T12:17:35Z</time></trkpt><trkpt lat="46.03754943498383" lon="8.070921379601712"><ele>1381.0</ele><time>2026-04-26T12:17:48Z</time></trkpt><trkpt lat="46.03752418549131" lon="8.07102442400624"><ele>1380.7142857142858</ele><time>2026-04-26T12:17:52Z</time></trkpt><trkpt lat="46.03749502687437" lon="8.071115624420914"><ele>1380.4285714285713</ele><time>2026-04-26T12:17:56Z</time></trkpt><trkpt lat="46.037569883970754" lon="8.071146011511447"><ele>1380.142857142857</ele><time>2026-04-26T12:18:00Z</time></trkpt><trkpt lat="46.03762823321503" lon="8.07118168984234"><ele>1379.857142857143</ele><time>2026-04-26T12:18:09Z</time></trkpt><trkpt lat="46.03769246428312" lon="8.071204508537225"><ele>1379.5714285714284</ele><time>2026-04-26T12:18:15Z</time></trkpt><trkpt lat="46.03775582525731" lon="8.071226927783865"><ele>1379.2857142857142</ele><time>2026-04-26T12:18:19Z</time></trkpt><trkpt lat="46.03780019045139" lon="8.071303474335814"><ele>1379.0</ele><time>2026-04-26T12:18:24Z</time></trkpt><trkpt lat="46.037853341443515" lon="8.07142201092964"><ele>1379.0</ele><time>2026-04-26T12:18:41Z</time></trkpt><trkpt lat="46.037867501060084" lon="8.071510725444686"><ele>1379.0</ele><time>2026-04-26T12:18:47Z</time></trkpt><trkpt lat="46.03791809923342" lon="8.071566629006982"><ele>1379.0</ele><time>2026-04-26T12:18:51.001Z</time></trkpt><trkpt lat="46.0379686918706" lon="8.071630727762527"><ele>1379.0</ele><time>2026-04-26T12:18:56.001Z</time></trkpt><trkpt lat="46.03797545026606" lon="8.07172926364918"><ele>1379.0</ele><time>2026-04-26T12:19:05.999Z</time></trkpt><trkpt lat="46.03803256983408" lon="8.071786697925251"><ele>1379.0</ele><time>2026-04-26T12:19:11.999Z</time></trkpt><trkpt lat="46.03808206250706" lon="8.071873841616439"><ele>1379.0</ele><time>2026-04-26T12:19:18.999Z</time></trkpt><trkpt lat="46.03812919327236" lon="8.07194871629362"><ele>1377.7142857142858</ele><time>2026-04-26T12:19:24.999Z</time></trkpt><trkpt lat="46.03817497052492" lon="8.072015755104122"><ele>1376.4285714285716</ele><time>2026-04-26T12:19:31Z</time></trkpt><trkpt lat="46.038225284601765" lon="8.07207656798383"><ele>1375.142857142857</ele><time>2026-04-26T12:19:36Z</time></trkpt><trkpt lat="46.03827376769151" lon="8.072141754460796"><ele>1373.857142857143</ele><time>2026-04-26T12:19:41Z</time></trkpt><trkpt lat="46.0383211386139" lon="8.072206815800483"><ele>1372.5714285714287</ele><time>2026-04-26T12:19:48Z</time></trkpt><trkpt lat="46.038367327022925" lon="8.072279046944411"><ele>1371.2857142857142</ele><time>2026-04-26T12:19:53Z</time></trkpt><trkpt lat="46.03843061528977" lon="8.072370254324703"><ele>1370.0</ele><time>2026-04-26T12:20:01Z</time></trkpt><trkpt lat="46.03849422345288" lon="8.072387599961575"><ele>1370.0</ele><time>2026-04-26T12:20:05Z</time></trkpt><trkpt lat="46.03856054870932" lon="8.072375451690188"><ele>1370.0</ele><time>2026-04-26T12:20:14Z</time></trkpt><trkpt lat="46.03863115827106" lon="8.07239740677397"><ele>1370.0</ele><time>2026-04-26T12:20:20Z</time></trkpt><trkpt lat="46.03868979467758" lon="8.072444736650642"><ele>1370.0</ele><time>2026-04-26T12:20:26Z</time></trkpt><trkpt lat="46.03872882679911" lon="8.07252048548447"><ele>1370.0</ele><time>2026-04-26T12:20:52.001Z</time></trkpt><trkpt lat="46.03878414229382" lon="8.072569776644782"><ele>1370.0</ele><time>2026-04-26T12:21:00.001Z</time></trkpt><trkpt lat="46.038832493407746" lon="8.072635704273432"><ele>1370.0</ele><time>2026-04-26T12:21:12.001Z</time></trkpt><trkpt lat="46.03889539924592" lon="8.072623875053043"><ele>1368.1666666666667</ele><time>2026-04-26T12:21:20.001Z</time></trkpt><trkpt lat="46.03896652887077" lon="8.072614590861825"><ele>1366.3333333333335</ele><time>2026-04-26T12:21:28.001Z</time></trkpt><trkpt lat="46.03903545074016" lon="8.072647580897458"><ele>1364.5</ele><time>2026-04-26T12:21:43.001Z</time></trkpt><trkpt lat="46.0391601340327" lon="8.072670003727628"><ele>1362.6666666666667</ele><time>2026-04-26T12:21:56.001Z</time></trkpt><trkpt lat="46.03922352982576" lon="8.072680239433057"><ele>1360.8333333333333</ele><time>2026-04-26T12:22:02.001Z</time></trkpt><trkpt lat="46.03929019619936" lon="8.072710201107666"><ele>1359.0</ele><time>2026-04-26T12:22:06.001Z</time></trkpt><trkpt lat="46.039331569539826" lon="8.07278908963141"><ele>1359.0</ele><time>2026-04-26T12:22:11.001Z</time></trkpt><trkpt lat="46.039396983732836" lon="8.072813561550422"><ele>1359.0</ele><time>2026-04-26T12:22:17.001Z</time></trkpt><trkpt lat="46.03945750466711" lon="8.072856981165609"><ele>1359.0</ele><time>2026-04-26T12:22:22.001Z</time></trkpt><trkpt lat="46.039514304034874" lon="8.072913862874664"><ele>1359.0</ele><time>2026-04-26T12:22:28.001Z</time></trkpt><trkpt lat="46.03957009261574" lon="8.072967369688243"><ele>1359.0</ele><time>2026-04-26T12:23:03.002Z</time></trkpt><trkpt lat="46.03963314331471" lon="8.072987319294098"><ele>1359.0</ele><time>2026-04-26T12:23:12.002Z</time></trkpt><trkpt lat="46.039695259174124" lon="8.07301797511329"><ele>1359.0</ele><time>2026-04-26T12:23:24.001Z</time></trkpt><trkpt lat="46.0397578220687" lon="8.073053271337926"><ele>1359.0</ele><time>2026-04-26T12:23:33.001Z</time></trkpt><trkpt lat="46.03982201017001" lon="8.073090517900189"><ele>1359.0</ele><time>2026-04-26T12:23:39.001Z</time></trkpt><trkpt lat="46.03988310289563" lon="8.073121206536271"><ele>1359.0</ele><time>2026-04-26T12:23:46.001Z</time></trkpt><trkpt lat="46.03994941971462" lon="8.073151497268563"><ele>1359.0</ele><time>2026-04-26T12:23:54.001Z</time></trkpt><trkpt lat="46.040026298295" lon="8.073208722663903"><ele>1359.0</ele><time>2026-04-26T12:24:02.001Z</time></trkpt><trkpt lat="46.04009276765367" lon="8.07324126294228"><ele>1359.0</ele><time>2026-04-26T12:24:08.002Z</time></trkpt><trkpt lat="46.04015423514298" lon="8.073281005395978"><ele>1359.0</ele><time>2026-04-26T12:24:13.002Z</time></trkpt><trkpt lat="46.04019771110492" lon="8.073362921892624"><ele>1361.5714285714287</ele><time>2026-04-26T12:24:21.002Z</time></trkpt><trkpt lat="46.04025258857567" lon="8.073421013766408"><ele>1364.142857142857</ele><time>2026-04-26T12:24:27.002Z</time></trkpt><trkpt lat="46.0403073189652" lon="8.073476193670382"><ele>1366.7142857142858</ele><time>2026-04-26T12:24:32.002Z</time></trkpt><trkpt lat="46.04037243495828" lon="8.0735273896251"><ele>1369.2857142857142</ele><time>2026-04-26T12:24:40.002Z</time></trkpt><trkpt lat="46.04044718726995" lon="8.073528852435418"><ele>1371.857142857143</ele><time>2026-04-26T12:24:50.001Z</time></trkpt><trkpt lat="46.04051965836456" lon="8.07350053770255"><ele>1374.4285714285713</ele><time>2026-04-26T12:24:56.001Z</time></trkpt><trkpt lat="46.0405917975507" lon="8.073505619866468"><ele>1377.0</ele><time>2026-04-26T12:25:01.001Z</time></trkpt><trkpt lat="46.04066608910862" lon="8.073494108343423"><ele>1377.0</ele><time>2026-04-26T12:25:09.001Z</time></trkpt><trkpt lat="46.04074814813815" lon="8.073529233514781"><ele>1377.0</ele><time>2026-04-26T12:25:19.999Z</time></trkpt><trkpt lat="46.0408282428491" lon="8.07353322382135"><ele>1377.0</ele><time>2026-04-26T12:25:25.999Z</time></trkpt><trkpt lat="46.040908001490095" lon="8.073548770288138"><ele>1377.0</ele><time>2026-04-26T12:25:31.999Z</time></trkpt><trkpt lat="46.04098482409344" lon="8.073553097846855"><ele>1377.0</ele><time>2026-04-26T12:25:37.999Z</time></trkpt><trkpt lat="46.041050869812075" lon="8.073557112558744"><ele>1377.0</ele><time>2026-04-26T12:25:42.999Z</time></trkpt><trkpt lat="46.04111883750636" lon="8.07354526873237"><ele>1373.857142857143</ele><time>2026-04-26T12:25:48Z</time></trkpt><trkpt lat="46.041180246919964" lon="8.073568037963001"><ele>1370.7142857142858</ele><time>2026-04-26T12:25:54Z</time></trkpt><trkpt lat="46.04125094600918" lon="8.073600128443884"><ele>1367.5714285714287</ele><time>2026-04-26T12:26:01Z</time></trkpt><trkpt lat="46.04131091954119" lon="8.073647255534164"><ele>1364.4285714285716</ele><time>2026-04-26T12:26:07Z</time></trkpt><trkpt lat="46.04136584911766" lon="8.073701404114605"><ele>1361.2857142857142</ele><time>2026-04-26T12:26:12Z</time></trkpt><trkpt lat="46.04142476866954" lon="8.073735962283346"><ele>1358.1428571428573</ele><time>2026-04-26T12:26:17Z</time></trkpt><trkpt lat="46.041487796383706" lon="8.073775532176107"><ele>1355.0</ele><time>2026-04-26T12:26:22Z</time></trkpt><trkpt lat="46.04153894340768" lon="8.073836730753005"><ele>1355.0000000000002</ele><time>2026-04-26T12:26:28Z</time></trkpt><trkpt lat="46.04161179084342" lon="8.073878186424949"><ele>1355.0</ele><time>2026-04-26T12:26:34Z</time></trkpt><trkpt lat="46.041681931069924" lon="8.073927074725328"><ele>1355.0</ele><time>2026-04-26T12:26:39Z</time></trkpt><trkpt lat="46.041741506587904" lon="8.073961872046134"><ele>1355.0</ele><time>2026-04-26T12:26:44Z</time></trkpt><trkpt lat="46.041796953424615" lon="8.074008999265022"><ele>1355.0</ele><time>2026-04-26T12:26:49Z</time></trkpt><trkpt lat="46.041853277863105" lon="8.07405144231904"><ele>1355.0000000000002</ele><time>2026-04-26T12:26:55Z</time></trkpt><trkpt lat="46.041914443156436" lon="8.074091349501492"><ele>1355.0</ele><time>2026-04-26T12:27:01Z</time></trkpt><trkpt lat="46.04197329828101" lon="8.074128806910467"><ele>1358.4285714285716</ele><time>2026-04-26T12:27:06Z</time></trkpt><trkpt lat="46.042038306972714" lon="8.074151445106915"><ele>1361.857142857143</ele><time>2026-04-26T12:27:11Z</time></trkpt><trkpt lat="46.042100438840876" lon="8.074190292724833"><ele>1365.2857142857142</ele><time>2026-04-26T12:27:18.001Z</time></trkpt><trkpt lat="46.04216340138878" lon="8.074235294831634"><ele>1368.7142857142858</ele><time>2026-04-26T12:27:23Z</time></trkpt><trkpt lat="46.042218443979" lon="8.07427966222032"><ele>1372.142857142857</ele><time>2026-04-26T12:27:28Z</time></trkpt><trkpt lat="46.04227555221242" lon="8.074340028147574"><ele>1375.5714285714287</ele><time>2026-04-26T12:27:35Z</time></trkpt><trkpt lat="46.04233117736506" lon="8.074391031689265"><ele>1379.0</ele><time>2026-04-26T12:27:40Z</time></trkpt><trkpt lat="46.042391552874825" lon="8.074459715240847"><ele>1379.0</ele><time>2026-04-26T12:27:47Z</time></trkpt><trkpt lat="46.04244988994236" lon="8.07450891339129"><ele>1379.0</ele><time>2026-04-26T12:27:52Z</time></trkpt><trkpt lat="46.04251512435523" lon="8.074565486652421"><ele>1379.0</ele><time>2026-04-26T12:27:58Z</time></trkpt><trkpt lat="46.04256701730312" lon="8.074620690066896"><ele>1379.0</ele><time>2026-04-26T12:28:04Z</time></trkpt><trkpt lat="46.04262607875518" lon="8.074662504724888"><ele>1379.0</ele><time>2026-04-26T12:28:09Z</time></trkpt><trkpt lat="46.04267492745864" lon="8.074729007818458"><ele>1379.0</ele><time>2026-04-26T12:28:14.001Z</time></trkpt><trkpt lat="46.04273180428008" lon="8.074804462000637"><ele>1379.0</ele><time>2026-04-26T12:28:20.001Z</time></trkpt><trkpt lat="46.04280112666698" lon="8.074863062974183"><ele>1380.0</ele><time>2026-04-26T12:28:27.001Z</time></trkpt><trkpt lat="46.04285913774694" lon="8.074910379058453"><ele>1381.0</ele><time>2026-04-26T12:28:33.001Z</time></trkpt><trkpt lat="46.042918439951464" lon="8.074964342423087"><ele>1382.0</ele><time>2026-04-26T12:28:38.001Z</time></trkpt><trkpt lat="46.04297640219345" lon="8.075023525209524"><ele>1383.0</ele><time>2026-04-26T12:28:44.001Z</time></trkpt><trkpt lat="46.04303196160784" lon="8.075084167196751"><ele>1384.0</ele><time>2026-04-26T12:28:51.001Z</time></trkpt><trkpt lat="46.043092640467414" lon="8.07511733304857"><ele>1385.0</ele><time>2026-04-26T12:28:57.001Z</time></trkpt><trkpt lat="46.04315502544038" lon="8.075149301381902"><ele>1386.0</ele><time>2026-04-26T12:29:03.001Z</time></trkpt><trkpt lat="46.04321949808548" lon="8.075201709840758"><ele>1386.0</ele><time>2026-04-26T12:29:09.001Z</time></trkpt><trkpt lat="46.04327100558053" lon="8.075256144415622"><ele>1386.0</ele><time>2026-04-26T12:29:14.001Z</time></trkpt><trkpt lat="46.04333401198227" lon="8.075313471884982"><ele>1386.0</ele><time>2026-04-26T12:29:21.001Z</time></trkpt><trkpt lat="46.04338541698224" lon="8.075368819868997"><ele>1386.0</ele><time>2026-04-26T12:29:27.001Z</time></trkpt><trkpt lat="46.04343869474762" lon="8.075422482769069"><ele>1386.0</ele><time>2026-04-26T12:29:32.001Z</time></trkpt><trkpt lat="46.043489786121086" lon="8.075483309099713"><ele>1386.0</ele><time>2026-04-26T12:29:39.001Z</time></trkpt><trkpt lat="46.043543482962676" lon="8.07555316084436"><ele>1386.0</ele><time>2026-04-26T12:29:47.001Z</time></trkpt><trkpt lat="46.04359656479425" lon="8.075622629252495"><ele>1387.142857142857</ele><time>2026-04-26T12:29:53.001Z</time></trkpt><trkpt lat="46.043656192466585" lon="8.075669302291358"><ele>1388.2857142857142</ele><time>2026-04-26T12:30:02.001Z</time></trkpt><trkpt lat="46.04371107284241" lon="8.075721469591574"><ele>1389.4285714285716</ele><time>2026-04-26T12:30:07.001Z</time></trkpt><trkpt lat="46.0437576086794" lon="8.075791453310586"><ele>1390.5714285714284</ele><time>2026-04-26T12:30:12.001Z</time></trkpt><trkpt lat="46.04379776074923" lon="8.075869293536861"><ele>1391.7142857142858</ele><time>2026-04-26T12:30:18.001Z</time></trkpt><trkpt lat="46.043858125454925" lon="8.075913002237606"><ele>1392.857142857143</ele><time>2026-04-26T12:30:23.001Z</time></trkpt><trkpt lat="46.04392128963262" lon="8.075964085754329"><ele>1394.0</ele><time>2026-04-26T12:30:29.001Z</time></trkpt><trkpt lat="46.04397625954965" lon="8.076010581313955"><ele>1394.0</ele><time>2026-04-26T12:30:36.001Z</time></trkpt><trkpt lat="46.044044762346594" lon="8.076057837052142"><ele>1394.0</ele><time>2026-04-26T12:30:42.001Z</time></trkpt><trkpt lat="46.044109957867555" lon="8.076096298254559"><ele>1394.0</ele><time>2026-04-26T12:30:50.001Z</time></trkpt><trkpt lat="46.0441791414081" lon="8.07612480740926"><ele>1394.0</ele><time>2026-04-26T12:30:57.001Z</time></trkpt><trkpt lat="46.044244090621106" lon="8.07617132305143"><ele>1394.0</ele><time>2026-04-26T12:31:02.001Z</time></trkpt><trkpt lat="46.044303571874345" lon="8.076211032710315"><ele>1394.0</ele><time>2026-04-26T12:31:10.001Z</time></trkpt><trkpt lat="46.04437359748323" lon="8.07623448057741"><ele>1394.0</ele><time>2026-04-26T12:31:16.001Z</time></trkpt><trkpt lat="46.04445215664668" lon="8.076257867029389"><ele>1388.7142857142858</ele><time>2026-04-26T12:31:21.001Z</time></trkpt><trkpt lat="46.044517421523594" lon="8.07627493618591"><ele>1383.4285714285713</ele><time>2026-04-26T12:31:26.001Z</time></trkpt><trkpt lat="46.044594694373025" lon="8.07626255298194"><ele>1378.142857142857</ele><time>2026-04-26T12:31:33.002Z</time></trkpt><trkpt lat="46.044663066887715" lon="8.076254386385598"><ele>1372.857142857143</ele><time>2026-04-26T12:31:39.002Z</time></trkpt><trkpt lat="46.04473391019297" lon="8.076269239798457"><ele>1367.5714285714287</ele><time>2026-04-26T12:31:45.002Z</time></trkpt><trkpt lat="46.04480453882785" lon="8.076306418515252"><ele>1362.2857142857142</ele><time>2026-04-26T12:31:51.002Z</time></trkpt><trkpt lat="46.04485200769777" lon="8.076374836502719"><ele>1357.0</ele><time>2026-04-26T12:31:56.002Z</time></trkpt><trkpt lat="46.04491100150404" lon="8.07641683283095"><ele>1354.857142857143</ele><time>2026-04-26T12:32:02.001Z</time></trkpt><trkpt lat="46.044968345413444" lon="8.076481647737598"><ele>1352.7142857142858</ele><time>2026-04-26T12:32:11.001Z</time></trkpt><trkpt lat="46.04503882970345" lon="8.076493274889287"><ele>1350.5714285714284</ele><time>2026-04-26T12:32:17.001Z</time></trkpt><trkpt lat="46.04511168494326" lon="8.076497067704908"><ele>1348.4285714285716</ele><time>2026-04-26T12:32:22.001Z</time></trkpt><trkpt lat="46.04517620753451" lon="8.076505331976334"><ele>1346.2857142857144</ele><time>2026-04-26T12:32:27.001Z</time></trkpt><trkpt lat="46.045239652919136" lon="8.076539234186486"><ele>1344.142857142857</ele><time>2026-04-26T12:32:32.001Z</time></trkpt><trkpt lat="46.0453011763363" lon="8.076567939210534"><ele>1342.0</ele><time>2026-04-26T12:32:38.001Z</time></trkpt><trkpt lat="46.04536906658128" lon="8.076597022862959"><ele>1345.7142857142856</ele><time>2026-04-26T12:32:44.001Z</time></trkpt><trkpt lat="46.04543607690096" lon="8.076609079291467"><ele>1349.4285714285716</ele><time>2026-04-26T12:32:49.001Z</time></trkpt><trkpt lat="46.045502398549374" lon="8.076642563268631"><ele>1353.142857142857</ele><time>2026-04-26T12:32:55.001Z</time></trkpt><trkpt lat="46.04556777652024" lon="8.076680715937368"><ele>1356.8571428571427</ele><time>2026-04-26T12:33:03.002Z</time></trkpt><trkpt lat="46.04563658401399" lon="8.076715783683042"><ele>1360.5714285714284</ele><time>2026-04-26T12:33:08.002Z</time></trkpt><trkpt lat="46.04570854849803" lon="8.07674623329595"><ele>1364.2857142857142</ele><time>2026-04-26T12:33:14.002Z</time></trkpt><trkpt lat="46.045773103672815" lon="8.076787294855814"><ele>1368.0</ele><time>2026-04-26T12:33:19.002Z</time></trkpt><trkpt lat="46.045837778047655" lon="8.07682043590548"><ele>1367.9999999999998</ele><time>2026-04-26T12:33:24.002Z</time></trkpt><trkpt lat="46.04590103204804" lon="8.076857079389526"><ele>1368.0</ele><time>2026-04-26T12:33:29.002Z</time></trkpt><trkpt lat="46.04596161088397" lon="8.076895669157192"><ele>1368.0</ele><time>2026-04-26T12:33:36.002Z</time></trkpt><trkpt lat="46.04602514032117" lon="8.07693899584647"><ele>1368.0</ele><time>2026-04-26T12:33:41.002Z</time></trkpt><trkpt lat="46.04608489004077" lon="8.076974735358032"><ele>1368.0</ele><time>2026-04-26T12:33:46.002Z</time></trkpt><trkpt lat="46.04614928259143" lon="8.07703100786547"><ele>1367.9999999999998</ele><time>2026-04-26T12:33:53.002Z</time></trkpt><trkpt lat="46.046205109896015" lon="8.07708159957098"><ele>1368.0</ele><time>2026-04-26T12:33:59.002Z</time></trkpt><trkpt lat="46.04627961268589" lon="8.077111487578623"><ele>1367.9999999999998</ele><time>2026-04-26T12:34:08.002Z</time></trkpt><trkpt lat="46.0463491357599" lon="8.077136198655172"><ele>1368.0</ele><time>2026-04-26T12:34:12.002Z</time></trkpt><trkpt lat="46.046418330982824" lon="8.077162142044628"><ele>1368.0</ele><time>2026-04-26T12:34:16.002Z</time></trkpt><trkpt lat="46.046476930838644" lon="8.0772052780661"><ele>1368.0</ele><time>2026-04-26T12:34:22.001Z</time></trkpt><trkpt lat="46.04652873582222" lon="8.077257077660594"><ele>1368.0</ele><time>2026-04-26T12:34:27Z</time></trkpt><trkpt lat="46.046583783295645" lon="8.077306868820147"><ele>1367.9999999999998</ele><time>2026-04-26T12:34:34Z</time></trkpt><trkpt lat="46.04665298197654" lon="8.077344049919773"><ele>1368.0</ele><time>2026-04-26T12:34:41Z</time></trkpt><trkpt lat="46.04670543026412" lon="8.077416772328311"><ele>1368.2857142857142</ele><time>2026-04-26T12:34:46Z</time></trkpt><trkpt lat="46.04676230126221" lon="8.077465505413253"><ele>1368.5714285714284</ele><time>2026-04-26T12:34:55Z</time></trkpt><trkpt lat="46.04683534712221" lon="8.077476162757291"><ele>1368.8571428571427</ele><time>2026-04-26T12:35:06Z</time></trkpt><trkpt lat="46.04685936853811" lon="8.077583699214474"><ele>1369.142857142857</ele><time>2026-04-26T12:35:11Z</time></trkpt><trkpt lat="46.04691688118669" lon="8.077638223081735"><ele>1369.4285714285716</ele><time>2026-04-26T12:35:20.001Z</time></trkpt><trkpt lat="46.04697553073668" lon="8.077693079755726"><ele>1369.7142857142856</ele><time>2026-04-26T12:35:27.001Z</time></trkpt><trkpt lat="46.04703808076132" lon="8.077740402162517"><ele>1370.0</ele><time>2026-04-26T12:35:44.001Z</time></trkpt><trkpt lat="46.047071868552976" lon="8.077833743611237"><ele>1370.0</ele><time>2026-04-26T12:35:50.001Z</time></trkpt><trkpt lat="46.04705160275489" lon="8.077920054017003"><ele>1370.0</ele><time>2026-04-26T12:35:56.001Z</time></trkpt><trkpt lat="46.04703183998638" lon="8.07805659845965"><ele>1370.0</ele><time>2026-04-26T12:36:02Z</time></trkpt><trkpt lat="46.0470162207127" lon="8.078166216754985"><ele>1370.0</ele><time>2026-04-26T12:36:09Z</time></trkpt><trkpt lat="46.047034659654564" lon="8.07826095032225"><ele>1370.0</ele><time>2026-04-26T12:36:13Z</time></trkpt><trkpt lat="46.04702842488903" lon="8.078367455357478"><ele>1370.0</ele><time>2026-04-26T12:36:18Z</time></trkpt><trkpt lat="46.047031563990956" lon="8.07846986898492"><ele>1373.0</ele><time>2026-04-26T12:36:25Z</time></trkpt><trkpt lat="46.04701194286411" lon="8.078595765502376"><ele>1376.0</ele><time>2026-04-26T12:36:30Z</time></trkpt><trkpt lat="46.04695764075272" lon="8.078677956773015"><ele>1379.0</ele><time>2026-04-26T12:36:43Z</time></trkpt><trkpt lat="46.046923046308876" lon="8.078755908346633"><ele>1382.0</ele><time>2026-04-26T12:36:48Z</time></trkpt><trkpt lat="46.04690107153893" lon="8.078845449198743"><ele>1385.0</ele><time>2026-04-26T12:36:54Z</time></trkpt><trkpt lat="46.046876113410775" lon="8.078944807625623"><ele>1388.0</ele><time>2026-04-26T12:37:03Z</time></trkpt><trkpt lat="46.04688124401633" lon="8.0790535828252"><ele>1391.0</ele><time>2026-04-26T12:37:09Z</time></trkpt><trkpt lat="46.04688640646877" lon="8.079151173155708"><ele>1391.0</ele><time>2026-04-26T12:37:15Z</time></trkpt><trkpt lat="46.04687034085327" lon="8.079240518798462"><ele>1391.0</ele><time>2026-04-26T12:37:20Z</time></trkpt><trkpt lat="46.04685437871862" lon="8.079334879810713"><ele>1391.0</ele><time>2026-04-26T12:37:25Z</time></trkpt><trkpt lat="46.04685096579299" lon="8.079442734871888"><ele>1391.0</ele><time>2026-04-26T12:37:31Z</time></trkpt><trkpt lat="46.04685114220669" lon="8.07954246545261"><ele>1391.0</ele><time>2026-04-26T12:37:36Z</time></trkpt><trkpt lat="46.04683598585789" lon="8.0796446263642"><ele>1391.0</ele><time>2026-04-26T12:37:42Z</time></trkpt><trkpt lat="46.04687196147968" lon="8.079737216061945"><ele>1391.0</ele><time>2026-04-26T12:37:49Z</time></trkpt><trkpt lat="46.04687348097646" lon="8.079839393171108"><ele>1390.5714285714284</ele><time>2026-04-26T12:37:55.001Z</time></trkpt><trkpt lat="46.046871286204535" lon="8.079954126481704"><ele>1390.1428571428573</ele><time>2026-04-26T12:38:02Z</time></trkpt><trkpt lat="46.046886458894384" lon="8.080045449479218"><ele>1389.7142857142858</ele><time>2026-04-26T12:38:07Z</time></trkpt><trkpt lat="46.04692154271989" lon="8.08013200677591"><ele>1389.2857142857142</ele><time>2026-04-26T12:38:12Z</time></trkpt><trkpt lat="46.046981388021784" lon="8.080200089511786"><ele>1388.8571428571427</ele><time>2026-04-26T12:38:17Z</time></trkpt><trkpt lat="46.04702204943765" lon="8.080275616019984"><ele>1388.4285714285716</ele><time>2026-04-26T12:38:23Z</time></trkpt><trkpt lat="46.04708270532501" lon="8.080340098056721"><ele>1388.0</ele><time>2026-04-26T12:38:28Z</time></trkpt><trkpt lat="46.047105606272346" lon="8.080429176069762"><ele>1388.0</ele><time>2026-04-26T12:38:34Z</time></trkpt><trkpt lat="46.0471318414421" lon="8.08051898972627"><ele>1388.0</ele><time>2026-04-26T12:38:40Z</time></trkpt><trkpt lat="46.04708881703401" lon="8.080433228123134"><ele>1388.0</ele><time>2026-04-26T12:39:17Z</time></trkpt><trkpt lat="46.047077218545525" lon="8.080333179837671"><ele>1388.0</ele><time>2026-04-26T12:39:23Z</time></trkpt><trkpt lat="46.04703911151207" lon="8.080238522946601"><ele>1388.0</ele><time>2026-04-26T12:39:30Z</time></trkpt><trkpt lat="46.0469949581717" lon="8.080163692532869"><ele>1388.0</ele><time>2026-04-26T12:39:35Z</time></trkpt><trkpt lat="46.0469684960991" lon="8.080069949590918"><ele>1388.0</ele><time>2026-04-26T12:39:40Z</time></trkpt><trkpt lat="46.04696092104247" lon="8.079970123253013"><ele>1388.4285714285716</ele><time>2026-04-26T12:39:45Z</time></trkpt><trkpt lat="46.04696788515423" lon="8.079858884955478"><ele>1388.8571428571427</ele><time>2026-04-26T12:39:51Z</time></trkpt><trkpt lat="46.046976982149104" lon="8.07975822837264"><ele>1389.2857142857142</ele><time>2026-04-26T12:39:56Z</time></trkpt><trkpt lat="46.04696552032784" lon="8.079666319816605"><ele>1389.7142857142858</ele><time>2026-04-26T12:40:01Z</time></trkpt><trkpt lat="46.04696117959706" lon="8.07956989198213"><ele>1390.1428571428573</ele><time>2026-04-26T12:40:06Z</time></trkpt><trkpt lat="46.04696464213995" lon="8.079471459139429"><ele>1390.5714285714284</ele><time>2026-04-26T12:40:11Z</time></trkpt><trkpt lat="46.046980197776406" lon="8.079372105833881"><ele>1391.0</ele><time>2026-04-26T12:40:16Z</time></trkpt><trkpt lat="46.04699172802813" lon="8.079278172434076"><ele>1391.0</ele><time>2026-04-26T12:40:22Z</time></trkpt><trkpt lat="46.04700657528221" lon="8.079189506828962"><ele>1391.0</ele><time>2026-04-26T12:40:27Z</time></trkpt><trkpt lat="46.04702566607883" lon="8.079092478143146"><ele>1391.0</ele><time>2026-04-26T12:40:33Z</time></trkpt><trkpt lat="46.047079356200996" lon="8.079014213123287"><ele>1391.0</ele><time>2026-04-26T12:40:39Z</time></trkpt><trkpt lat="46.047148300584794" lon="8.078994948912186"><ele>1391.0</ele><time>2026-04-26T12:40:56Z</time></trkpt><trkpt lat="46.04718065976416" lon="8.079073800182604"><ele>1391.0</ele><time>2026-04-26T12:41:11Z</time></trkpt><trkpt lat="46.047227455054944" lon="8.079148775080537"><ele>1391.0</ele><time>2026-04-26T12:41:25Z</time></trkpt><trkpt lat="46.04727292600435" lon="8.079215251153304"><ele>1391.0</ele><time>2026-04-26T12:41:33Z</time></trkpt><trkpt lat="46.04732698338279" lon="8.079278979331669"><ele>1391.0</ele><time>2026-04-26T12:41:45Z</time></trkpt><trkpt lat="46.04733542020814" lon="8.079375330049617"><ele>1391.0</ele><time>2026-04-26T12:41:56Z</time></trkpt><trkpt lat="46.047401747069166" lon="8.079430001606697"><ele>1391.0</ele><time>2026-04-26T12:42:02Z</time></trkpt><trkpt lat="46.04743718150655" lon="8.079509321067707"><ele>1391.0</ele><time>2026-04-26T12:42:08Z</time></trkpt><trkpt lat="46.0474614766371" lon="8.079598741136348"><ele>1391.0</ele><time>2026-04-26T12:42:13Z</time></trkpt><trkpt lat="46.04750593827945" lon="8.079683929146475"><ele>1391.0</ele><time>2026-04-26T12:42:18Z</time></trkpt><trkpt lat="46.047546422533635" lon="8.079778570513092"><ele>1383.2857142857142</ele><time>2026-04-26T12:42:24Z</time></trkpt><trkpt lat="46.04758813286968" lon="8.079866158329088"><ele>1375.5714285714287</ele><time>2026-04-26T12:42:30Z</time></trkpt><trkpt lat="46.04760768447011" lon="8.079961362329112"><ele>1367.857142857143</ele><time>2026-04-26T12:42:36Z</time></trkpt><trkpt lat="46.047627641971324" lon="8.080062202765781"><ele>1360.142857142857</ele><time>2026-04-26T12:42:42Z</time></trkpt><trkpt lat="46.04765906098685" lon="8.080158794655915"><ele>1352.4285714285716</ele><time>2026-04-26T12:42:48Z</time></trkpt><trkpt lat="46.04770794578526" lon="8.08022428787237"><ele>1344.7142857142858</ele><time>2026-04-26T12:42:54Z</time></trkpt><trkpt lat="46.04775903957745" lon="8.080296680706407"><ele>1337.0</ele><time>2026-04-26T12:43:00Z</time></trkpt><trkpt lat="46.047826972569325" lon="8.080343524989507"><ele>1337.0</ele><time>2026-04-26T12:43:05Z</time></trkpt><trkpt lat="46.047894486279375" lon="8.080375041882336"><ele>1337.0</ele><time>2026-04-26T12:43:12Z</time></trkpt><trkpt lat="46.047946934021994" lon="8.080428221456774"><ele>1337.0</ele><time>2026-04-26T12:43:18Z</time></trkpt><trkpt lat="46.047963814455294" lon="8.080536432360477"><ele>1337.0</ele><time>2026-04-26T12:43:24Z</time></trkpt><trkpt lat="46.047945502803394" lon="8.08062876473547"><ele>1337.0</ele><time>2026-04-26T12:43:29Z</time></trkpt><trkpt lat="46.04792695841877" lon="8.080727508725012"><ele>1337.0</ele><time>2026-04-26T12:43:35Z</time></trkpt><trkpt lat="46.047886886332144" lon="8.080808277069568"><ele>1337.0</ele><time>2026-04-26T12:43:40Z</time></trkpt><trkpt lat="46.04784152565618" lon="8.080892317831848"><ele>1338.7142857142858</ele><time>2026-04-26T12:43:47Z</time></trkpt><trkpt lat="46.04780675001673" lon="8.080968647971876"><ele>1340.4285714285716</ele><time>2026-04-26T12:43:51.999Z</time></trkpt><trkpt lat="46.047791214384326" lon="8.081065879495519"><ele>1342.142857142857</ele><time>2026-04-26T12:43:57.999Z</time></trkpt><trkpt lat="46.047828660185274" lon="8.081155081149417"><ele>1343.857142857143</ele><time>2026-04-26T12:44:03.999Z</time></trkpt><trkpt lat="46.04787261974437" lon="8.081222528847949"><ele>1345.5714285714287</ele><time>2026-04-26T12:44:09Z</time></trkpt><trkpt lat="46.04792185314899" lon="8.08128541967755"><ele>1347.2857142857142</ele><time>2026-04-26T12:44:15Z</time></trkpt><trkpt lat="46.04798080651545" lon="8.081337679899677"><ele>1349.0</ele><time>2026-04-26T12:44:21.999Z</time></trkpt><trkpt lat="46.04805167958786" lon="8.081352162351783"><ele>1349.0</ele><time>2026-04-26T12:44:28.999Z</time></trkpt><trkpt lat="46.04811279337358" lon="8.08141026621412"><ele>1349.0</ele><time>2026-04-26T12:44:34.999Z</time></trkpt><trkpt lat="46.04814613000207" lon="8.081498488814061"><ele>1349.0</ele><time>2026-04-26T12:44:39.999Z</time></trkpt><trkpt lat="46.04813707329205" lon="8.08159757967027"><ele>1349.0</ele><time>2026-04-26T12:44:45.999Z</time></trkpt><trkpt lat="46.04815719462922" lon="8.081697721058662"><ele>1349.0</ele><time>2026-04-26T12:44:51.999Z</time></trkpt><trkpt lat="46.04819928659741" lon="8.081770669375398"><ele>1349.0</ele><time>2026-04-26T12:44:56.999Z</time></trkpt><trkpt lat="46.04822447058696" lon="8.081865233675229"><ele>1349.0</ele><time>2026-04-26T12:45:02.999Z</time></trkpt><trkpt lat="46.048292301353044" lon="8.08186765919356"><ele>1342.857142857143</ele><time>2026-04-26T12:45:14.999Z</time></trkpt><trkpt lat="46.048298035406404" lon="8.08177075757793"><ele>1336.7142857142858</ele><time>2026-04-26T12:45:19.999Z</time></trkpt><trkpt lat="46.0483545888186" lon="8.081702311395249"><ele>1330.5714285714287</ele><time>2026-04-26T12:45:25.999Z</time></trkpt><trkpt lat="46.04843039965178" lon="8.081698953651758"><ele>1324.4285714285716</ele><time>2026-04-26T12:45:30.999Z</time></trkpt><trkpt lat="46.04849182678423" lon="8.081767662575407"><ele>1318.2857142857142</ele><time>2026-04-26T12:45:36.999Z</time></trkpt><trkpt lat="46.048493603418585" lon="8.08187432425146"><ele>1312.1428571428573</ele><time>2026-04-26T12:45:41.999Z</time></trkpt><trkpt lat="46.04845567207268" lon="8.081968093328717"><ele>1306.0</ele><time>2026-04-26T12:45:47.999Z</time></trkpt><trkpt lat="46.04843409905615" lon="8.082062967690593"><ele>1306.0000000000002</ele><time>2026-04-26T12:45:53.999Z</time></trkpt><trkpt lat="46.04845063053115" lon="8.082159243561474"><ele>1306.0</ele><time>2026-04-26T12:45:59.999Z</time></trkpt><trkpt lat="46.048502556741184" lon="8.082237696674898"><ele>1306.0</ele><time>2026-04-26T12:46:06.999Z</time></trkpt><trkpt lat="46.04855928006693" lon="8.0822823590063"><ele>1306.0</ele><time>2026-04-26T12:46:13Z</time></trkpt><trkpt lat="46.048618377222105" lon="8.082324838388297"><ele>1306.0</ele><time>2026-04-26T12:46:18Z</time></trkpt><trkpt lat="46.0486843496417" lon="8.082376177789113"><ele>1306.0000000000002</ele><time>2026-04-26T12:46:25Z</time></trkpt><trkpt lat="46.048738833477216" lon="8.082435410529742"><ele>1306.0</ele><time>2026-04-26T12:46:32Z</time></trkpt><trkpt lat="46.048798647275504" lon="8.082488335179466"><ele>1309.4285714285716</ele><time>2026-04-26T12:46:38Z</time></trkpt><trkpt lat="46.04883441518287" lon="8.082564343054724"><ele>1312.857142857143</ele><time>2026-04-26T12:46:43Z</time></trkpt><trkpt lat="46.048871946263056" lon="8.082646058392955"><ele>1316.2857142857142</ele><time>2026-04-26T12:46:48Z</time></trkpt><trkpt lat="46.04891728114891" lon="8.08271649904355"><ele>1319.7142857142858</ele><time>2026-04-26T12:46:53Z</time></trkpt><trkpt lat="46.04895898394959" lon="8.082799807032524"><ele>1323.142857142857</ele><time>2026-04-26T12:46:59Z</time></trkpt><trkpt lat="46.04897804323627" lon="8.082902832861436"><ele>1326.5714285714287</ele><time>2026-04-26T12:47:04Z</time></trkpt><trkpt lat="46.049002449631686" lon="8.08298748320567"><ele>1330.0</ele><time>2026-04-26T12:47:09Z</time></trkpt><trkpt lat="46.049027481837555" lon="8.083079728956335"><ele>1330.0</ele><time>2026-04-26T12:47:14Z</time></trkpt><trkpt lat="46.049036148150144" lon="8.08318894982889"><ele>1330.0</ele><time>2026-04-26T12:47:19Z</time></trkpt><trkpt lat="46.04906913366902" lon="8.083280966329799"><ele>1330.0</ele><time>2026-04-26T12:47:24Z</time></trkpt><trkpt lat="46.04907508619531" lon="8.083390570858889"><ele>1330.0</ele><time>2026-04-26T12:47:30Z</time></trkpt><trkpt lat="46.049055277293576" lon="8.083496471906694"><ele>1330.0</ele><time>2026-04-26T12:47:35Z</time></trkpt><trkpt lat="46.04902209514423" lon="8.083575693633442"><ele>1330.0</ele><time>2026-04-26T12:47:39Z</time></trkpt><trkpt lat="46.04898188815758" lon="8.083647367623087"><ele>1330.0</ele><time>2026-04-26T12:47:44Z</time></trkpt><trkpt lat="46.04894787042384" lon="8.083731793864096"><ele>1331.7142857142858</ele><time>2026-04-26T12:47:49Z</time></trkpt><trkpt lat="46.04892746710612" lon="8.08383122880764"><ele>1333.4285714285716</ele><time>2026-04-26T12:47:55Z</time></trkpt><trkpt lat="46.048920111150494" lon="8.08393243154618"><ele>1335.142857142857</ele><time>2026-04-26T12:48:02Z</time></trkpt><trkpt lat="46.04890127445771" lon="8.084036886210209"><ele>1336.857142857143</ele><time>2026-04-26T12:48:08Z</time></trkpt><trkpt lat="46.048869132525844" lon="8.0841391898946"><ele>1338.5714285714287</ele><time>2026-04-26T12:48:13Z</time></trkpt><trkpt lat="46.048865690055614" lon="8.084243680740812"><ele>1340.2857142857142</ele><time>2026-04-26T12:48:18Z</time></trkpt><trkpt lat="46.048912753744744" lon="8.084314631812113"><ele>1342.0</ele><time>2026-04-26T12:48:33Z</time></trkpt><trkpt lat="46.04893750063121" lon="8.084406124504175"><ele>1342.0</ele><time>2026-04-26T12:48:41Z</time></trkpt><trkpt lat="46.049001135540244" lon="8.08443785902963"><ele>1342.0</ele><time>2026-04-26T12:48:49Z</time></trkpt><trkpt lat="46.049049185338106" lon="8.084500067340981"><ele>1342.0</ele><time>2026-04-26T12:48:57Z</time></trkpt><trkpt lat="46.04909541006969" lon="8.084564259505735"><ele>1342.0</ele><time>2026-04-26T12:49:05Z</time></trkpt><trkpt lat="46.04919379561904" lon="8.084659508323837"><ele>1342.0</ele><time>2026-04-26T12:49:58Z</time></trkpt><trkpt lat="46.0492128010613" lon="8.084747119962875"><ele>1342.0</ele><time>2026-04-26T12:50:05Z</time></trkpt><trkpt lat="46.049232722576306" lon="8.084845400616837"><ele>1342.0</ele><time>2026-04-26T12:50:12Z</time></trkpt><trkpt lat="46.049245892381684" lon="8.084941439495678"><ele>1334.5714285714284</ele><time>2026-04-26T12:50:20Z</time></trkpt><trkpt lat="46.04928300476695" lon="8.085019941284173"><ele>1327.1428571428573</ele><time>2026-04-26T12:50:29.001Z</time></trkpt><trkpt lat="46.049322416623184" lon="8.085098902394122"><ele>1319.7142857142858</ele><time>2026-04-26T12:50:40.001Z</time></trkpt><trkpt lat="46.04936124337168" lon="8.085184719553842"><ele>1312.2857142857142</ele><time>2026-04-26T12:50:48Z</time></trkpt><trkpt lat="46.049409963566156" lon="8.085259682587163"><ele>1304.8571428571427</ele><time>2026-04-26T12:50:56Z</time></trkpt><trkpt lat="46.0494428949858" lon="8.085338835347564"><ele>1297.4285714285716</ele><time>2026-04-26T12:51:05Z</time></trkpt><trkpt lat="46.04948042072814" lon="8.085419703568482"><ele>1290.0</ele><time>2026-04-26T12:51:13Z</time></trkpt><trkpt lat="46.04949969200645" lon="8.08550951196434"><ele>1290.0</ele><time>2026-04-26T12:51:19Z</time></trkpt><trkpt lat="46.04952490988035" lon="8.085594180225774"><ele>1290.0</ele><time>2026-04-26T12:51:26Z</time></trkpt><trkpt lat="46.0495753479815" lon="8.08567501927625"><ele>1290.0</ele><time>2026-04-26T12:51:39Z</time></trkpt><trkpt lat="46.04960550965534" lon="8.085763724875484"><ele>1290.0</ele><time>2026-04-26T12:51:55Z</time></trkpt><trkpt lat="46.049642258326415" lon="8.085841678484641"><ele>1290.0</ele><time>2026-04-26T12:52:06Z</time></trkpt><trkpt lat="46.0495980596154" lon="8.08590808653791"><ele>1290.0</ele><time>2026-04-26T12:52:12Z</time></trkpt><trkpt lat="46.049552582919404" lon="8.085982622352839"><ele>1290.0</ele><time>2026-04-26T12:52:20Z</time></trkpt><trkpt lat="46.04953571043648" lon="8.086076659630196"><ele>1289.2857142857144</ele><time>2026-04-26T12:52:34.001Z</time></trkpt><trkpt lat="46.049557032092075" lon="8.086165297059841"><ele>1288.5714285714284</ele><time>2026-04-26T12:52:41.001Z</time></trkpt><trkpt lat="46.04959631405132" lon="8.086242658563712"><ele>1287.857142857143</ele><time>2026-04-26T12:52:55.001Z</time></trkpt><trkpt lat="46.0496758140858" lon="8.086239329138628"><ele>1287.1428571428573</ele><time>2026-04-26T12:53:09.001Z</time></trkpt><trkpt lat="46.04974640808156" lon="8.086225920929701"><ele>1286.4285714285716</ele><time>2026-04-26T12:53:16.001Z</time></trkpt><trkpt lat="46.049810550756625" lon="8.086239059596075"><ele>1285.7142857142858</ele><time>2026-04-26T12:53:24Z</time></trkpt><trkpt lat="46.04980504283481" lon="8.08634139238522"><ele>1285.0</ele><time>2026-04-26T12:53:32Z</time></trkpt><trkpt lat="46.04985357309018" lon="8.086280448022382"><ele>1285.0000000000002</ele><time>2026-04-26T12:53:42Z</time></trkpt><trkpt lat="46.04992233640681" lon="8.086301362049015"><ele>1285.0</ele><time>2026-04-26T12:53:48Z</time></trkpt><trkpt lat="46.04994904759021" lon="8.086209816324955"><ele>1285.0</ele><time>2026-04-26T12:54:04.999Z</time></trkpt><trkpt lat="46.04998483934053" lon="8.086133250812876"><ele>1285.0</ele><time>2026-04-26T12:54:13.999Z</time></trkpt><trkpt lat="46.05002901243208" lon="8.086056243628375"><ele>1285.0</ele><time>2026-04-26T12:54:21.999Z</time></trkpt><trkpt lat="46.05006375606194" lon="8.08596991134205"><ele>1285.0000000000002</ele><time>2026-04-26T12:54:28.999Z</time></trkpt><trkpt lat="46.050118934751524" lon="8.085914211205038"><ele>1285.0</ele><time>2026-04-26T12:54:39Z</time></trkpt><trkpt lat="46.050167703067316" lon="8.085852549204684"><ele>1279.0000000000002</ele><time>2026-04-26T12:54:48Z</time></trkpt><trkpt lat="46.05022378912874" lon="8.085800211529172"><ele>1273.0</ele><time>2026-04-26T12:54:59Z</time></trkpt><trkpt lat="46.05028168639496" lon="8.085836249000021"><ele>1267.0</ele><time>2026-04-26T12:55:03Z</time></trkpt><trkpt lat="46.05030263839745" lon="8.08592633598808"><ele>1261.0</ele><time>2026-04-26T12:55:14Z</time></trkpt><trkpt lat="46.05030668395598" lon="8.086030716211907"><ele>1255.0</ele><time>2026-04-26T12:55:21Z</time></trkpt><trkpt lat="46.05026789691649" lon="8.086102399366263"><ele>1249.0000000000002</ele><time>2026-04-26T12:55:27Z</time></trkpt><trkpt lat="46.050363387150036" lon="8.08612374929807"><ele>1243.0</ele><time>2026-04-26T12:55:47Z</time></trkpt><trkpt lat="46.05039314185106" lon="8.086035694806158"><ele>1243.0000000000002</ele><time>2026-04-26T12:56:00Z</time></trkpt><trkpt lat="46.050424149396804" lon="8.08594970822612"><ele>1243.0</ele><time>2026-04-26T12:56:10Z</time></trkpt><trkpt lat="46.05048885313652" lon="8.085947744891138"><ele>1243.0</ele><time>2026-04-26T12:56:22Z</time></trkpt><trkpt lat="46.050550247753876" lon="8.08591093156638"><ele>1243.0</ele><time>2026-04-26T12:56:33.999Z</time></trkpt><trkpt lat="46.05059144381039" lon="8.085840981126378"><ele>1243.0</ele><time>2026-04-26T12:56:50Z</time></trkpt><trkpt lat="46.05060433586213" lon="8.085738173397184"><ele>1243.0000000000002</ele><time>2026-04-26T12:56:56Z</time></trkpt><trkpt lat="46.050638414672605" lon="8.08564584054304"><ele>1243.0</ele><time>2026-04-26T12:57:02Z</time></trkpt><trkpt lat="46.05063250828184" lon="8.085554604320617"><ele>1243.1428571428573</ele><time>2026-04-26T12:57:08Z</time></trkpt><trkpt lat="46.05068551156613" lon="8.085491618971705"><ele>1243.2857142857142</ele><time>2026-04-26T12:57:15Z</time></trkpt><trkpt lat="46.0507141430143" lon="8.085390193539174"><ele>1243.4285714285716</ele><time>2026-04-26T12:57:24Z</time></trkpt><trkpt lat="46.05070753511848" lon="8.085297003047879"><ele>1243.5714285714287</ele><time>2026-04-26T12:57:32Z</time></trkpt><trkpt lat="46.05073132312363" lon="8.08521169677094"><ele>1243.7142857142858</ele><time>2026-04-26T12:57:40Z</time></trkpt><trkpt lat="46.050798302494" lon="8.085235991178799"><ele>1243.857142857143</ele><time>2026-04-26T12:57:47Z</time></trkpt><trkpt lat="46.050844080253015" lon="8.085301544010587"><ele>1244.0</ele><time>2026-04-26T12:57:53Z</time></trkpt><trkpt lat="46.050869619089866" lon="8.085399291979792"><ele>1235.5714285714284</ele><time>2026-04-26T12:58:04Z</time></trkpt><trkpt lat="46.050928123971204" lon="8.08544964546248"><ele>1227.1428571428573</ele><time>2026-04-26T12:58:13Z</time></trkpt><trkpt lat="46.05094909250484" lon="8.085536496093393"><ele>1218.7142857142858</ele><time>2026-04-26T12:58:23Z</time></trkpt><trkpt lat="46.0509698423065" lon="8.085631136670091"><ele>1210.2857142857142</ele><time>2026-04-26T12:58:32Z</time></trkpt><trkpt lat="46.05095090252311" lon="8.085726397247194"><ele>1201.8571428571427</ele><time>2026-04-26T12:58:40Z</time></trkpt><trkpt lat="46.05101431784384" lon="8.085764127838637"><ele>1193.4285714285713</ele><time>2026-04-26T12:59:01Z</time></trkpt><trkpt lat="46.051050753784295" lon="8.085854271171597"><ele>1185.0</ele><time>2026-04-26T12:59:09Z</time></trkpt><trkpt lat="46.051057866280026" lon="8.085946043575696"><ele>1185.0</ele><time>2026-04-26T12:59:16Z</time></trkpt><trkpt lat="46.05107084364379" lon="8.086035151299736"><ele>1185.0</ele><time>2026-04-26T12:59:27Z</time></trkpt><trkpt lat="46.051126682925144" lon="8.086082739118623"><ele>1185.0</ele><time>2026-04-26T12:59:45Z</time></trkpt><trkpt lat="46.051110406626826" lon="8.086184089595816"><ele>1185.0</ele><time>2026-04-26T12:59:54Z</time></trkpt><trkpt lat="46.05109211908669" lon="8.086281279896271"><ele>1185.0</ele><time>2026-04-26T13:00:02Z</time></trkpt><trkpt lat="46.05104258139541" lon="8.086350076021722"><ele>1185.0</ele><time>2026-04-26T13:00:10Z</time></trkpt><trkpt lat="46.05099406800879" lon="8.086410757054196"><ele>1185.0</ele><time>2026-04-26T13:00:17Z</time></trkpt><trkpt lat="46.05093298610357" lon="8.086469353835607"><ele>1185.0</ele><time>2026-04-26T13:00:24Z</time></trkpt><trkpt lat="46.05099612720612" lon="8.086453149577231"><ele>1185.0</ele><time>2026-04-26T13:00:33Z</time></trkpt><trkpt lat="46.05100054665256" lon="8.086550570023777"><ele>1185.0</ele><time>2026-04-26T13:00:42Z</time></trkpt><trkpt lat="46.051014726070555" lon="8.086646496548163"><ele>1185.0</ele><time>2026-04-26T13:00:50Z</time></trkpt><trkpt lat="46.051032414649995" lon="8.08673945885553"><ele>1185.0</ele><time>2026-04-26T13:00:59.001Z</time></trkpt><trkpt lat="46.05102645344897" lon="8.086845465837714"><ele>1185.0</ele><time>2026-04-26T13:01:06.001Z</time></trkpt><trkpt lat="46.05097546548669" lon="8.08690926802494"><ele>1185.0</ele><time>2026-04-26T13:01:14Z</time></trkpt><trkpt lat="46.05092829509843" lon="8.08697595412147"><ele>1183.142857142857</ele><time>2026-04-26T13:01:21Z</time></trkpt><trkpt lat="46.05095649198594" lon="8.087059123893109"><ele>1181.2857142857142</ele><time>2026-04-26T13:01:39Z</time></trkpt><trkpt lat="46.05094554224759" lon="8.087150020872137"><ele>1179.4285714285713</ele><time>2026-04-26T13:01:48Z</time></trkpt><trkpt lat="46.05089860640799" lon="8.087218356157939"><ele>1177.5714285714284</ele><time>2026-04-26T13:02:02Z</time></trkpt><trkpt lat="46.050852790308845" lon="8.087293966699397"><ele>1175.7142857142858</ele><time>2026-04-26T13:02:09Z</time></trkpt><trkpt lat="46.050813738567115" lon="8.087366175391963"><ele>1173.8571428571427</ele><time>2026-04-26T13:02:15Z</time></trkpt><trkpt lat="46.05078672549383" lon="8.087453626605267"><ele>1172.0</ele><time>2026-04-26T13:02:25Z</time></trkpt><trkpt lat="46.050778332209966" lon="8.087552828130331"><ele>1167.4285714285713</ele><time>2026-04-26T13:02:35Z</time></trkpt><trkpt lat="46.05081247145121" lon="8.08762964729381"><ele>1162.857142857143</ele><time>2026-04-26T13:02:50Z</time></trkpt><trkpt lat="46.05085857091916" lon="8.08755622196156"><ele>1158.2857142857142</ele><time>2026-04-26T13:03:04Z</time></trkpt><trkpt lat="46.05092441548533" lon="8.087572670180188"><ele>1153.7142857142858</ele><time>2026-04-26T13:03:12Z</time></trkpt><trkpt lat="46.050956890926294" lon="8.087667559363087"><ele>1149.142857142857</ele><time>2026-04-26T13:03:27.999Z</time></trkpt><trkpt lat="46.05097399541911" lon="8.087761458632087"><ele>1144.5714285714284</ele><time>2026-04-26T13:04:23.999Z</time></trkpt><trkpt lat="46.05096406476773" lon="8.087852271350862"><ele>1140.0</ele><time>2026-04-26T13:04:33.999Z</time></trkpt><trkpt lat="46.05092298457927" lon="8.087922000789595"><ele>1140.0</ele><time>2026-04-26T13:04:40.999Z</time></trkpt><trkpt lat="46.05087447376665" lon="8.087991723912102"><ele>1140.0</ele><time>2026-04-26T13:04:46.999Z</time></trkpt><trkpt lat="46.05084402936636" lon="8.088075023911733"><ele>1140.0</ele><time>2026-04-26T13:05:06Z</time></trkpt><trkpt lat="46.05089312917449" lon="8.088146006165031"><ele>1140.0</ele><time>2026-04-26T13:05:17Z</time></trkpt><trkpt lat="46.05091873731185" lon="8.0882307119346"><ele>1140.0</ele><time>2026-04-26T13:05:27Z</time></trkpt><trkpt lat="46.05097979393188" lon="8.088263898755244"><ele>1140.0</ele><time>2026-04-26T13:05:35Z</time></trkpt><trkpt lat="46.051019553587665" lon="8.088334228729133"><ele>1140.0</ele><time>2026-04-26T13:05:44Z</time></trkpt><trkpt lat="46.05106152100459" lon="8.088418765615595"><ele>1137.2857142857142</ele><time>2026-04-26T13:06:03.999Z</time></trkpt><trkpt lat="46.05110629591521" lon="8.088488171760071"><ele>1134.5714285714287</ele><time>2026-04-26T13:06:14.999Z</time></trkpt><trkpt lat="46.05113732824582" lon="8.0885833736498"><ele>1131.857142857143</ele><time>2026-04-26T13:06:23.999Z</time></trkpt><trkpt lat="46.05108567180162" lon="8.088649085335879"><ele>1129.142857142857</ele><time>2026-04-26T13:06:29.999Z</time></trkpt><trkpt lat="46.05108293208669" lon="8.088756440832698"><ele>1126.4285714285713</ele><time>2026-04-26T13:06:36.999Z</time></trkpt><trkpt lat="46.051075139267105" lon="8.088859142028676"><ele>1123.7142857142858</ele><time>2026-04-26T13:06:43.999Z</time></trkpt><trkpt lat="46.05110297043567" lon="8.08895265558316"><ele>1121.0</ele><time>2026-04-26T13:06:49.999Z</time></trkpt><trkpt lat="46.05111208884357" lon="8.089044326424656"><ele>1120.142857142857</ele><time>2026-04-26T13:06:57.999Z</time></trkpt><trkpt lat="46.0511443247431" lon="8.089123902142777"><ele>1119.2857142857142</ele><time>2026-04-26T13:07:05.999Z</time></trkpt><trkpt lat="46.051169827924" lon="8.089208289837428"><ele>1118.4285714285713</ele><time>2026-04-26T13:07:15Z</time></trkpt><trkpt lat="46.05118662852826" lon="8.089312700904545"><ele>1117.5714285714284</ele><time>2026-04-26T13:07:26Z</time></trkpt><trkpt lat="46.051205953612566" lon="8.089404113866932"><ele>1116.7142857142856</ele><time>2026-04-26T13:07:35Z</time></trkpt><trkpt lat="46.051236303372974" lon="8.08950171878533"><ele>1115.857142857143</ele><time>2026-04-26T13:07:47Z</time></trkpt><trkpt lat="46.05129035587114" lon="8.089554638526414"><ele>1115.0</ele><time>2026-04-26T13:07:58Z</time></trkpt><trkpt lat="46.05128663285041" lon="8.089459433687777"><ele>1115.0</ele><time>2026-04-26T13:08:29Z</time></trkpt><trkpt lat="46.05127117335438" lon="8.089369618072208"><ele>1115.0</ele><time>2026-04-26T13:08:35Z</time></trkpt><trkpt lat="46.05127914042122" lon="8.089276715991625"><ele>1115.0</ele><time>2026-04-26T13:08:40Z</time></trkpt><trkpt lat="46.05127403294668" lon="8.089184707942431"><ele>1115.0</ele><time>2026-04-26T13:08:44Z</time></trkpt><trkpt lat="46.05130631455054" lon="8.089096331923235"><ele>1115.0</ele><time>2026-04-26T13:08:50Z</time></trkpt><trkpt lat="46.05133819758832" lon="8.089005676730121"><ele>1115.0</ele><time>2026-04-26T13:08:55.999Z</time></trkpt><trkpt lat="46.05137649679577" lon="8.08892953829389"><ele>1115.0</ele><time>2026-04-26T13:09:01.999Z</time></trkpt><trkpt lat="46.05142611453444" lon="8.088860371473395"><ele>1115.857142857143</ele><time>2026-04-26T13:09:07.999Z</time></trkpt><trkpt lat="46.05147470962405" lon="8.088795853637627"><ele>1116.7142857142856</ele><time>2026-04-26T13:09:12.999Z</time></trkpt><trkpt lat="46.05152426232918" lon="8.088735966912926"><ele>1117.5714285714284</ele><time>2026-04-26T13:09:19Z</time></trkpt><trkpt lat="46.051564335449676" lon="8.088664283808358"><ele>1118.4285714285713</ele><time>2026-04-26T13:09:26Z</time></trkpt><trkpt lat="46.051611649759" lon="8.088591645762486"><ele>1119.2857142857142</ele><time>2026-04-26T13:09:32Z</time></trkpt><trkpt lat="46.05164813834828" lon="8.088511435418985"><ele>1120.142857142857</ele><time>2026-04-26T13:09:37Z</time></trkpt><trkpt lat="46.0516675931718" lon="8.088421875652296"><ele>1121.0</ele><time>2026-04-26T13:09:43Z</time></trkpt><trkpt lat="46.051670181864786" lon="8.088317553406263"><ele>1117.142857142857</ele><time>2026-04-26T13:09:49Z</time></trkpt><trkpt lat="46.0516894965013" lon="8.088223501000705"><ele>1113.2857142857142</ele><time>2026-04-26T13:09:56Z</time></trkpt><trkpt lat="46.05170155674417" lon="8.088131401002947"><ele>1109.4285714285713</ele><time>2026-04-26T13:10:02Z</time></trkpt><trkpt lat="46.051726548755724" lon="8.088047909505137"><ele>1105.5714285714284</ele><time>2026-04-26T13:10:07Z</time></trkpt><trkpt lat="46.05174572932238" lon="8.08795661913119"><ele>1101.7142857142856</ele><time>2026-04-26T13:10:12Z</time></trkpt><trkpt lat="46.05180207420904" lon="8.08790898848158"><ele>1097.857142857143</ele><time>2026-04-26T13:10:19Z</time></trkpt><trkpt lat="46.05182450669221" lon="8.087807163147357"><ele>1094.0</ele><time>2026-04-26T13:10:26Z</time></trkpt><trkpt lat="46.05181927813488" lon="8.087712276666965"><ele>1094.0</ele><time>2026-04-26T13:10:32Z</time></trkpt><trkpt lat="46.05179502280498" lon="8.087626820353204"><ele>1094.0</ele><time>2026-04-26T13:10:38Z</time></trkpt><trkpt lat="46.051803336686405" lon="8.087527477856584"><ele>1094.0</ele><time>2026-04-26T13:10:43Z</time></trkpt><trkpt lat="46.051804325022815" lon="8.08741994555325"><ele>1094.0</ele><time>2026-04-26T13:10:49Z</time></trkpt><trkpt lat="46.0518049138706" lon="8.087316778478726"><ele>1094.0</ele><time>2026-04-26T13:10:55Z</time></trkpt><trkpt lat="46.05180119039238" lon="8.087217859568119"><ele>1094.0</ele><time>2026-04-26T13:11:01Z</time></trkpt><trkpt lat="46.05182450415295" lon="8.087129946369005"><ele>1094.0</ele><time>2026-04-26T13:11:06Z</time></trkpt><trkpt lat="46.051846916270655" lon="8.087043935824786"><ele>1096.142857142857</ele><time>2026-04-26T13:11:11Z</time></trkpt><trkpt lat="46.0518777068481" lon="8.086942432605227"><ele>1098.2857142857142</ele><time>2026-04-26T13:11:17Z</time></trkpt><trkpt lat="46.0518967553683" lon="8.086839268053087"><ele>1100.4285714285713</ele><time>2026-04-26T13:11:23Z</time></trkpt><trkpt lat="46.051920627785705" lon="8.086728518450055"><ele>1102.5714285714284</ele><time>2026-04-26T13:11:29.001Z</time></trkpt><trkpt lat="46.05192651729652" lon="8.086627745114209"><ele>1104.7142857142858</ele><time>2026-04-26T13:11:35.001Z</time></trkpt><trkpt lat="46.05189439414659" lon="8.086535097953407"><ele>1106.8571428571427</ele><time>2026-04-26T13:11:42Z</time></trkpt><trkpt lat="46.051854131600386" lon="8.08645036168978"><ele>1109.0</ele><time>2026-04-26T13:11:48Z</time></trkpt><trkpt lat="46.051828601862496" lon="8.086366173888644"><ele>1109.4285714285713</ele><time>2026-04-26T13:11:55Z</time></trkpt><trkpt lat="46.05181980208691" lon="8.086255626766333"><ele>1109.857142857143</ele><time>2026-04-26T13:12:03Z</time></trkpt><trkpt lat="46.05183914762534" lon="8.086163080831168"><ele>1110.2857142857142</ele><time>2026-04-26T13:12:09Z</time></trkpt><trkpt lat="46.05189627522856" lon="8.086094608656634"><ele>1110.7142857142858</ele><time>2026-04-26T13:12:16Z</time></trkpt><trkpt lat="46.05196630973045" lon="8.086069400433765"><ele>1111.142857142857</ele><time>2026-04-26T13:12:33.999Z</time></trkpt><trkpt lat="46.05202930252235" lon="8.08609379434464"><ele>1111.5714285714284</ele><time>2026-04-26T13:12:38.999Z</time></trkpt><trkpt lat="46.052077399778256" lon="8.086154979163988"><ele>1112.0</ele><time>2026-04-26T13:12:43.999Z</time></trkpt><trkpt lat="46.05213900252073" lon="8.08617370506449"><ele>1112.0</ele><time>2026-04-26T13:12:49.999Z</time></trkpt><trkpt lat="46.05220702487702" lon="8.086175359560052"><ele>1112.0</ele><time>2026-04-26T13:12:57.999Z</time></trkpt><trkpt lat="46.05225965082146" lon="8.086248265518297"><ele>1112.0</ele><time>2026-04-26T13:13:03.999Z</time></trkpt><trkpt lat="46.05229848697646" lon="8.0863237066584"><ele>1112.0</ele><time>2026-04-26T13:13:07.999Z</time></trkpt><trkpt lat="46.05230949024155" lon="8.086416874877946"><ele>1112.0</ele><time>2026-04-26T13:13:12.999Z</time></trkpt><trkpt lat="46.05231011277817" lon="8.08650789937181"><ele>1112.0</ele><time>2026-04-26T13:13:19.999Z</time></trkpt><trkpt lat="46.05233539315007" lon="8.086609426747074"><ele>1112.0</ele><time>2026-04-26T13:13:28Z</time></trkpt><trkpt lat="46.0523681384204" lon="8.08669143434625"><ele>1111.5714285714284</ele><time>2026-04-26T13:13:34Z</time></trkpt><trkpt lat="46.05240124060126" lon="8.086779882729092"><ele>1111.142857142857</ele><time>2026-04-26T13:13:39Z</time></trkpt><trkpt lat="46.05245132418883" lon="8.086858222739131"><ele>1110.7142857142858</ele><time>2026-04-26T13:13:45Z</time></trkpt><trkpt lat="46.05248417954365" lon="8.086943881367315"><ele>1110.2857142857142</ele><time>2026-04-26T13:13:51Z</time></trkpt><trkpt lat="46.05252283633065" lon="8.087023540984964"><ele>1109.857142857143</ele><time>2026-04-26T13:13:56Z</time></trkpt><trkpt lat="46.05258093482382" lon="8.08708038347347"><ele>1109.4285714285713</ele><time>2026-04-26T13:14:03Z</time></trkpt><trkpt lat="46.05264635816644" lon="8.087115546971944"><ele>1109.0</ele><time>2026-04-26T13:14:09Z</time></trkpt><trkpt lat="46.05270783085848" lon="8.087148759518707"><ele>1106.2857142857142</ele><time>2026-04-26T13:14:15Z</time></trkpt><trkpt lat="46.05277264592604" lon="8.087173930794442"><ele>1103.5714285714284</ele><time>2026-04-26T13:14:21Z</time></trkpt><trkpt lat="46.0528326165596" lon="8.087203176661173"><ele>1100.857142857143</ele><time>2026-04-26T13:14:25.999Z</time></trkpt><trkpt lat="46.052895885126894" lon="8.087240142305061"><ele>1098.142857142857</ele><time>2026-04-26T13:14:31.999Z</time></trkpt><trkpt lat="46.05296456460438" lon="8.087282797721087"><ele>1095.4285714285716</ele><time>2026-04-26T13:14:36.999Z</time></trkpt><trkpt lat="46.05302368781883" lon="8.08731493609139"><ele>1092.7142857142858</ele><time>2026-04-26T13:14:41.999Z</time></trkpt><trkpt lat="46.05308648157342" lon="8.0873571399476"><ele>1090.0</ele><time>2026-04-26T13:14:46.999Z</time></trkpt><trkpt lat="46.05315763243141" lon="8.087388520213393"><ele>1090.0</ele><time>2026-04-26T13:14:52.999Z</time></trkpt><trkpt lat="46.053216523996525" lon="8.087425964401532"><ele>1090.0</ele><time>2026-04-26T13:14:57.999Z</time></trkpt><trkpt lat="46.05329043433892" lon="8.087466920882877"><ele>1090.0</ele><time>2026-04-26T13:15:03.999Z</time></trkpt><trkpt lat="46.05336280557155" lon="8.087503031425566"><ele>1090.0</ele><time>2026-04-26T13:15:10.999Z</time></trkpt><trkpt lat="46.05342629979642" lon="8.087534475030655"><ele>1090.0</ele><time>2026-04-26T13:15:16.999Z</time></trkpt><trkpt lat="46.05349848235109" lon="8.08756134532294"><ele>1090.0</ele><time>2026-04-26T13:15:22.999Z</time></trkpt><trkpt lat="46.05356129308697" lon="8.087592244673727"><ele>1090.0</ele><time>2026-04-26T13:15:27.999Z</time></trkpt><trkpt lat="46.05361927463968" lon="8.087644132159026"><ele>1089.2857142857142</ele><time>2026-04-26T13:15:32.999Z</time></trkpt><trkpt lat="46.053689778397164" lon="8.08767545019258"><ele>1088.5714285714287</ele><time>2026-04-26T13:15:39Z</time></trkpt><trkpt lat="46.05376078007886" lon="8.08770385944228"><ele>1087.857142857143</ele><time>2026-04-26T13:15:45Z</time></trkpt><trkpt lat="46.05382262949509" lon="8.087732060933929"><ele>1087.142857142857</ele><time>2026-04-26T13:15:50Z</time></trkpt><trkpt lat="46.05387977022979" lon="8.08779023028658"><ele>1086.4285714285716</ele><time>2026-04-26T13:15:56Z</time></trkpt><trkpt lat="46.05394882825069" lon="8.087826023091745"><ele>1085.7142857142858</ele><time>2026-04-26T13:16:02Z</time></trkpt><trkpt lat="46.05401449522687" lon="8.087867967005604"><ele>1085.0</ele><time>2026-04-26T13:16:08Z</time></trkpt><trkpt lat="46.054081302972875" lon="8.087910354411441"><ele>1086.4285714285713</ele><time>2026-04-26T13:16:14Z</time></trkpt><trkpt lat="46.05414474951618" lon="8.087930086879554"><ele>1087.857142857143</ele><time>2026-04-26T13:16:19Z</time></trkpt><trkpt lat="46.05421496077856" lon="8.08795834782876"><ele>1089.2857142857142</ele><time>2026-04-26T13:16:24Z</time></trkpt><trkpt lat="46.05428138850619" lon="8.087957738873843"><ele>1090.7142857142858</ele><time>2026-04-26T13:16:29Z</time></trkpt><trkpt lat="46.05434851692357" lon="8.087941613915858"><ele>1092.142857142857</ele><time>2026-04-26T13:16:35Z</time></trkpt><trkpt lat="46.05442541316095" lon="8.087921131253557"><ele>1093.5714285714284</ele><time>2026-04-26T13:16:41Z</time></trkpt><trkpt lat="46.05448895282083" lon="8.087893160749012"><ele>1095.0</ele><time>2026-04-26T13:16:47Z</time></trkpt><trkpt lat="46.05455807725519" lon="8.08786452080671"><ele>1094.9999999999998</ele><time>2026-04-26T13:16:53Z</time></trkpt><trkpt lat="46.05461517310549" lon="8.08781757002485"><ele>1095.0</ele><time>2026-04-26T13:16:58.999Z</time></trkpt><trkpt lat="46.05467594825537" lon="8.087787980667544"><ele>1095.0</ele><time>2026-04-26T13:17:03.999Z</time></trkpt><trkpt lat="46.054736852275894" lon="8.087746307188853"><ele>1095.0</ele><time>2026-04-26T13:17:08.999Z</time></trkpt><trkpt lat="46.05481214417823" lon="8.087708983038192"><ele>1095.0</ele><time>2026-04-26T13:17:16.999Z</time></trkpt><trkpt lat="46.05482393759498" lon="8.087615822092097"><ele>1094.9999999999998</ele><time>2026-04-26T13:17:30.999Z</time></trkpt><trkpt lat="46.05486039622252" lon="8.087531494638522"><ele>1095.0</ele><time>2026-04-26T13:17:44Z</time></trkpt><trkpt lat="46.05490851762955" lon="8.087465966837623"><ele>1100.142857142857</ele><time>2026-04-26T13:18:00Z</time></trkpt><trkpt lat="46.05489818743309" lon="8.087375055003323"><ele>1105.2857142857142</ele><time>2026-04-26T13:18:11Z</time></trkpt><trkpt lat="46.05492067722296" lon="8.087288851902022"><ele>1110.4285714285716</ele><time>2026-04-26T13:18:37Z</time></trkpt><trkpt lat="46.05499838334085" lon="8.087328177923093"><ele>1115.5714285714284</ele><time>2026-04-26T13:19:08Z</time></trkpt><trkpt lat="46.055040884767294" lon="8.087241953323044"><ele>1120.7142857142858</ele><time>2026-04-26T13:19:27Z</time></trkpt><trkpt lat="46.055004310750626" lon="8.087163086002827"><ele>1125.857142857143</ele><time>2026-04-26T13:19:41Z</time></trkpt><trkpt lat="46.05498132054218" lon="8.087057309001302"><ele>1131.0</ele><time>2026-04-26T13:19:56Z</time></trkpt><trkpt lat="46.05494738892766" lon="8.086959168160945"><ele>1133.0000000000002</ele><time>2026-04-26T13:20:13Z</time></trkpt><trkpt lat="46.05500951288887" lon="8.086938195997085"><ele>1135.0</ele><time>2026-04-26T13:20:23Z</time></trkpt><trkpt lat="46.05507825567266" lon="8.086942457898287"><ele>1137.0</ele><time>2026-04-26T13:20:48Z</time></trkpt><trkpt lat="46.055128860090676" lon="8.08702458750404"><ele>1139.0</ele><time>2026-04-26T13:20:58Z</time></trkpt><trkpt lat="46.055190492044346" lon="8.087051495948817"><ele>1141.0</ele><time>2026-04-26T13:21:05Z</time></trkpt><trkpt lat="46.05525208820079" lon="8.087076305949065"><ele>1143.0000000000002</ele><time>2026-04-26T13:21:09Z</time></trkpt><trkpt lat="46.055309976987175" lon="8.087032474386977"><ele>1145.0</ele><time>2026-04-26T13:21:15Z</time></trkpt><trkpt lat="46.05537872547555" lon="8.08703501002663"><ele>1145.0000000000002</ele><time>2026-04-26T13:21:22Z</time></trkpt><trkpt lat="46.055445352874365" lon="8.087067519439522"><ele>1145.0</ele><time>2026-04-26T13:21:29Z</time></trkpt><trkpt lat="46.0555086025385" lon="8.08708367403372"><ele>1145.0</ele><time>2026-04-26T13:21:36Z</time></trkpt><trkpt lat="46.055571776602804" lon="8.087075885633627"><ele>1145.0</ele><time>2026-04-26T13:22:03.999Z</time></trkpt><trkpt lat="46.05563222369996" lon="8.087124420363276"><ele>1145.0</ele><time>2026-04-26T13:22:15.999Z</time></trkpt><trkpt lat="46.05569712091924" lon="8.087087520516016"><ele>1145.0000000000002</ele><time>2026-04-26T13:22:43.999Z</time></trkpt><trkpt lat="46.05575242638124" lon="8.087141482619169"><ele>1145.0</ele><time>2026-04-26T13:22:55.999Z</time></trkpt><trkpt lat="46.055820257659356" lon="8.087203850521309"><ele>1143.0000000000002</ele><time>2026-04-26T13:24:09.999Z</time></trkpt><trkpt lat="46.05584870532171" lon="8.087291255332865"><ele>1141.0</ele><time>2026-04-26T13:25:09.999Z</time></trkpt><trkpt lat="46.05590109511276" lon="8.087342880874312"><ele>1139.0</ele><time>2026-04-26T13:25:24.999Z</time></trkpt><trkpt lat="46.05593953961477" lon="8.087418690793674"><ele>1137.0</ele><time>2026-04-26T13:25:59.999Z</time></trkpt><trkpt lat="46.055978683411276" lon="8.087495954375411"><ele>1135.0</ele><time>2026-04-26T13:26:05.999Z</time></trkpt><trkpt lat="46.055965491619204" lon="8.087589605449523"><ele>1133.0000000000002</ele><time>2026-04-26T13:26:13.999Z</time></trkpt><trkpt lat="46.05591704232067" lon="8.087688464274187"><ele>1131.0</ele><time>2026-04-26T13:26:20.999Z</time></trkpt><trkpt lat="46.05590431730235" lon="8.087801939966985"><ele>1131.0000000000002</ele><time>2026-04-26T13:26:45.999Z</time></trkpt><trkpt lat="46.0558920330896" lon="8.087894088934071"><ele>1131.0</ele><time>2026-04-26T13:27:12.999Z</time></trkpt><trkpt lat="46.05593273072812" lon="8.08798153767399"><ele>1131.0</ele><time>2026-04-26T13:27:25.999Z</time></trkpt><trkpt lat="46.05593611897068" lon="8.088073326441371"><ele>1131.0</ele><time>2026-04-26T13:27:31.999Z</time></trkpt><trkpt lat="46.05598797042283" lon="8.088126225893522"><ele>1131.0</ele><time>2026-04-26T13:27:39.999Z</time></trkpt><trkpt lat="46.05602698772765" lon="8.08819856992778"><ele>1131.0000000000002</ele><time>2026-04-26T13:27:57.999Z</time></trkpt><trkpt lat="46.05606593662464" lon="8.08827316358129"><ele>1131.0</ele><time>2026-04-26T13:28:10Z</time></trkpt><trkpt lat="46.05612660545128" lon="8.088306561444103"><ele>1123.5714285714287</ele><time>2026-04-26T13:28:29Z</time></trkpt><trkpt lat="46.05618714624495" lon="8.088340351659442"><ele>1116.142857142857</ele><time>2026-04-26T13:28:38Z</time></trkpt><trkpt lat="46.05622307892325" lon="8.088429246500201"><ele>1108.7142857142858</ele><time>2026-04-26T13:28:49Z</time></trkpt><trkpt lat="46.056229919707754" lon="8.088523731500628"><ele>1101.2857142857142</ele><time>2026-04-26T13:28:59Z</time></trkpt><trkpt lat="46.05629327240355" lon="8.088503679767019"><ele>1093.857142857143</ele><time>2026-04-26T13:29:08Z</time></trkpt><trkpt lat="46.05635261054282" lon="8.088546159979872"><ele>1086.4285714285716</ele><time>2026-04-26T13:29:20Z</time></trkpt><trkpt lat="46.05641286010352" lon="8.08859781086917"><ele>1079.0</ele><time>2026-04-26T13:29:29Z</time></trkpt><trkpt lat="46.056485148304716" lon="8.088615992365764"><ele>1079.0</ele><time>2026-04-26T13:29:36Z</time></trkpt><trkpt lat="46.0565494445825" lon="8.0886078845167"><ele>1079.0</ele><time>2026-04-26T13:29:43Z</time></trkpt><trkpt lat="46.05661860551778" lon="8.088583792052077"><ele>1079.0</ele><time>2026-04-26T13:29:52Z</time></trkpt><trkpt lat="46.05667472160663" lon="8.088533512649315"><ele>1079.0</ele><time>2026-04-26T13:30:04Z</time></trkpt><trkpt lat="46.05673291404922" lon="8.088570501966888"><ele>1079.0</ele><time>2026-04-26T13:30:11Z</time></trkpt><trkpt lat="46.05679925532682" lon="8.08860188315883"><ele>1079.0</ele><time>2026-04-26T13:30:19Z</time></trkpt><trkpt lat="46.05686156224774" lon="8.088631858478378"><ele>1079.0</ele><time>2026-04-26T13:30:28Z</time></trkpt><trkpt lat="46.056919757498676" lon="8.088673030962337"><ele>1079.857142857143</ele><time>2026-04-26T13:30:35Z</time></trkpt><trkpt lat="46.05697171324117" lon="8.088743802871512"><ele>1080.7142857142858</ele><time>2026-04-26T13:30:40Z</time></trkpt><trkpt lat="46.05703314991929" lon="8.088777342967559"><ele>1081.5714285714284</ele><time>2026-04-26T13:30:47Z</time></trkpt><trkpt lat="46.05709883145828" lon="8.088813319582384"><ele>1082.4285714285716</ele><time>2026-04-26T13:30:54Z</time></trkpt><trkpt lat="46.05716850881925" lon="8.088825450424228"><ele>1083.2857142857142</ele><time>2026-04-26T13:31:03Z</time></trkpt><trkpt lat="46.05718938038547" lon="8.088925415060682"><ele>1084.142857142857</ele><time>2026-04-26T13:31:09Z</time></trkpt><trkpt lat="46.05723521160346" lon="8.088994140615737"><ele>1085.0</ele><time>2026-04-26T13:31:18Z</time></trkpt><trkpt lat="46.05724867210708" lon="8.089100661764927"><ele>1085.0</ele><time>2026-04-26T13:31:28Z</time></trkpt><trkpt lat="46.05729007617755" lon="8.089173743736144"><ele>1085.0</ele><time>2026-04-26T13:31:33.999Z</time></trkpt><trkpt lat="46.05733572545009" lon="8.089238426631356"><ele>1085.0</ele><time>2026-04-26T13:31:40.999Z</time></trkpt><trkpt lat="46.05738170629552" lon="8.089310304727682"><ele>1085.0</ele><time>2026-04-26T13:31:48.999Z</time></trkpt><trkpt lat="46.057421656260836" lon="8.089381008371616"><ele>1085.0</ele><time>2026-04-26T13:31:55.999Z</time></trkpt><trkpt lat="46.05745266601095" lon="8.08946221523901"><ele>1085.0</ele><time>2026-04-26T13:32:03.999Z</time></trkpt><trkpt lat="46.057461155095716" lon="8.089554385630967"><ele>1085.0</ele><time>2026-04-26T13:32:11.999Z</time></trkpt><trkpt lat="46.05745352217934" lon="8.089658006425841"><ele>1085.0</ele><time>2026-04-26T13:32:20.999Z</time></trkpt><trkpt lat="46.057444325150136" lon="8.089749884916403"><ele>1085.0</ele><time>2026-04-26T13:32:31Z</time></trkpt><trkpt lat="46.057383642280385" lon="8.089700676148297"><ele>1085.0</ele><time>2026-04-26T13:33:05Z</time></trkpt><trkpt lat="46.05736140785201" lon="8.089790403893321"><ele>1085.0</ele><time>2026-04-26T13:33:22Z</time></trkpt><trkpt lat="46.05731169866603" lon="8.089853160169941"><ele>1085.0</ele><time>2026-04-26T13:33:42Z</time></trkpt><trkpt lat="46.05731799294021" lon="8.089949103875801"><ele>1085.0</ele><time>2026-04-26T13:33:49Z</time></trkpt><trkpt lat="46.05736093871402" lon="8.09002964895785"><ele>1085.0</ele><time>2026-04-26T13:33:56Z</time></trkpt><trkpt lat="46.05740540763622" lon="8.090117774250215"><ele>1085.7142857142858</ele><time>2026-04-26T13:34:03Z</time></trkpt><trkpt lat="46.05746706379643" lon="8.090172130804838"><ele>1086.4285714285716</ele><time>2026-04-26T13:34:10Z</time></trkpt><trkpt lat="46.0575114693182" lon="8.090242908733925"><ele>1087.142857142857</ele><time>2026-04-26T13:34:17Z</time></trkpt><trkpt lat="46.05755526084941" lon="8.09031819710902"><ele>1087.857142857143</ele><time>2026-04-26T13:34:23Z</time></trkpt><trkpt lat="46.05760921415899" lon="8.090382430092554"><ele>1088.5714285714287</ele><time>2026-04-26T13:34:37Z</time></trkpt><trkpt lat="46.05764169936737" lon="8.090468744909849"><ele>1089.2857142857142</ele><time>2026-04-26T13:34:43Z</time></trkpt><trkpt lat="46.0576549215138" lon="8.090576013184183"><ele>1090.0</ele><time>2026-04-26T13:34:49Z</time></trkpt><trkpt lat="46.05767185088261" lon="8.090667685726292"><ele>1088.0</ele><time>2026-04-26T13:34:57Z</time></trkpt><trkpt lat="46.05769187961932" lon="8.090759203208616"><ele>1086.0</ele><time>2026-04-26T13:35:03Z</time></trkpt><trkpt lat="46.0576646943011" lon="8.09084666422162"><ele>1084.0</ele><time>2026-04-26T13:35:09Z</time></trkpt><trkpt lat="46.057607794274055" lon="8.090915861413254"><ele>1082.0</ele><time>2026-04-26T13:35:16Z</time></trkpt><trkpt lat="46.05754329495247" lon="8.090956233378774"><ele>1080.0</ele><time>2026-04-26T13:35:21Z</time></trkpt><trkpt lat="46.05749067686677" lon="8.091020125254373"><ele>1078.0</ele><time>2026-04-26T13:35:28Z</time></trkpt><trkpt lat="46.057449051068836" lon="8.091090672180242"><ele>1076.0</ele><time>2026-04-26T13:35:34Z</time></trkpt><trkpt lat="46.05744577383741" lon="8.09118840927185"><ele>1073.7142857142858</ele><time>2026-04-26T13:35:42Z</time></trkpt><trkpt lat="46.057430143023154" lon="8.091277655565214"><ele>1071.4285714285716</ele><time>2026-04-26T13:35:48Z</time></trkpt><trkpt lat="46.057416983292725" lon="8.09138072003043"><ele>1069.142857142857</ele><time>2026-04-26T13:35:54Z</time></trkpt><trkpt lat="46.057397228727275" lon="8.09148038766959"><ele>1066.857142857143</ele><time>2026-04-26T13:36:00Z</time></trkpt><trkpt lat="46.05736682219059" lon="8.091567287526257"><ele>1064.5714285714284</ele><time>2026-04-26T13:36:06Z</time></trkpt><trkpt lat="46.057352200402214" lon="8.091663132827522"><ele>1062.2857142857142</ele><time>2026-04-26T13:36:12Z</time></trkpt><trkpt lat="46.05731170712802" lon="8.091740616131634"><ele>1060.0</ele><time>2026-04-26T13:36:18Z</time></trkpt><trkpt lat="46.057278544806245" lon="8.091818574699637"><ele>1059.9999999999998</ele><time>2026-04-26T13:36:24Z</time></trkpt><trkpt lat="46.0572404375657" lon="8.091910494886005"><ele>1060.0</ele><time>2026-04-26T13:36:30Z</time></trkpt><trkpt lat="46.057194040126255" lon="8.091993560445076"><ele>1060.0</ele><time>2026-04-26T13:36:37Z</time></trkpt><trkpt lat="46.05713988812482" lon="8.092062775718967"><ele>1060.0</ele><time>2026-04-26T13:36:44Z</time></trkpt><trkpt lat="46.05709953407552" lon="8.092138961807933"><ele>1060.0</ele><time>2026-04-26T13:36:50Z</time></trkpt><trkpt lat="46.05706667822545" lon="8.092229787232956"><ele>1059.9999999999998</ele><time>2026-04-26T13:36:56Z</time></trkpt><trkpt lat="46.057037584247254" lon="8.092320877077995"><ele>1060.0</ele><time>2026-04-26T13:37:03Z</time></trkpt><trkpt lat="46.05701067169864" lon="8.092408702895751"><ele>1061.142857142857</ele><time>2026-04-26T13:37:09Z</time></trkpt><trkpt lat="46.05700551458055" lon="8.0925040832771"><ele>1062.2857142857142</ele><time>2026-04-26T13:37:16Z</time></trkpt><trkpt lat="46.05700599515973" lon="8.092608594504439"><ele>1063.4285714285716</ele><time>2026-04-26T13:37:23Z</time></trkpt><trkpt lat="46.05700249663115" lon="8.0927023680835"><ele>1064.5714285714284</ele><time>2026-04-26T13:37:29Z</time></trkpt><trkpt lat="46.05699855828053" lon="8.09279984793152"><ele>1065.7142857142858</ele><time>2026-04-26T13:37:34Z</time></trkpt><trkpt lat="46.05698466160957" lon="8.092892797588114"><ele>1066.857142857143</ele><time>2026-04-26T13:37:39Z</time></trkpt><trkpt lat="46.05698354384698" lon="8.092988013415516"><ele>1068.0</ele><time>2026-04-26T13:37:44Z</time></trkpt><trkpt lat="46.056981827381854" lon="8.093094532253579"><ele>1068.0000000000002</ele><time>2026-04-26T13:37:50Z</time></trkpt><trkpt lat="46.0569823781239" lon="8.093185456739857"><ele>1068.0</ele><time>2026-04-26T13:37:54Z</time></trkpt><trkpt lat="46.0569749084741" lon="8.093279399809635"><ele>1068.0</ele><time>2026-04-26T13:37:59Z</time></trkpt><trkpt lat="46.05696975374583" lon="8.093376338289326"><ele>1068.0</ele><time>2026-04-26T13:38:04Z</time></trkpt><trkpt lat="46.05697042867244" lon="8.093473015983145"><ele>1068.0</ele><time>2026-04-26T13:38:09Z</time></trkpt><trkpt lat="46.0569614110659" lon="8.09359112847809"><ele>1068.0000000000002</ele><time>2026-04-26T13:38:15Z</time></trkpt><trkpt lat="46.05694944955618" lon="8.093692300478102"><ele>1068.0</ele><time>2026-04-26T13:38:21Z</time></trkpt><trkpt lat="46.05697491892537" lon="8.093789620711501"><ele>1068.4285714285716</ele><time>2026-04-26T13:38:31Z</time></trkpt><trkpt lat="46.056993346712765" lon="8.093878386721252"><ele>1068.857142857143</ele><time>2026-04-26T13:38:36Z</time></trkpt><trkpt lat="46.0570020319357" lon="8.093976197607377"><ele>1069.2857142857142</ele><time>2026-04-26T13:38:42.001Z</time></trkpt><trkpt lat="46.05701666838757" lon="8.094076224720917"><ele>1069.7142857142858</ele><time>2026-04-26T13:38:47.001Z</time></trkpt><trkpt lat="46.05701823251755" lon="8.094176699262196"><ele>1070.142857142857</ele><time>2026-04-26T13:38:54.001Z</time></trkpt><trkpt lat="46.0569957087841" lon="8.094076762423626"><ele>1070.5714285714287</ele><time>2026-04-26T13:39:21Z</time></trkpt><trkpt lat="46.05698826693722" lon="8.0939703638013"><ele>1071.0</ele><time>2026-04-26T13:39:27Z</time></trkpt><trkpt lat="46.05697094893483" lon="8.093882702965896"><ele>1071.0</ele><time>2026-04-26T13:39:31Z</time></trkpt><trkpt lat="46.05695651725374" lon="8.093793078135988"><ele>1071.0</ele><time>2026-04-26T13:39:36Z</time></trkpt><trkpt lat="46.056934989198346" lon="8.093695873878373"><ele>1071.0</ele><time>2026-04-26T13:39:42Z</time></trkpt><trkpt lat="46.05693552948102" lon="8.093603255993209"><ele>1071.0</ele><time>2026-04-26T13:39:49Z</time></trkpt><trkpt lat="46.05695896913383" lon="8.093513107099714"><ele>1071.0</ele><time>2026-04-26T13:39:55Z</time></trkpt><trkpt lat="46.05689364142521" lon="8.093528273141066"><ele>1071.0</ele><time>2026-04-26T13:40:07Z</time></trkpt><trkpt lat="46.05686740490827" lon="8.093630955550259"><ele>1071.0</ele><time>2026-04-26T13:40:14Z</time></trkpt><trkpt lat="46.05680531389886" lon="8.093690901120137"><ele>1071.0</ele><time>2026-04-26T13:40:19Z</time></trkpt><trkpt lat="46.05674956226388" lon="8.093764390156476"><ele>1071.0</ele><time>2026-04-26T13:40:25Z</time></trkpt><trkpt lat="46.056697608196565" lon="8.093826646424942"><ele>1071.0</ele><time>2026-04-26T13:40:30Z</time></trkpt><trkpt lat="46.056656863144354" lon="8.093904382329791"><ele>1071.0</ele><time>2026-04-26T13:40:35Z</time></trkpt><trkpt lat="46.05662065262778" lon="8.093985151755616"><ele>1071.0</ele><time>2026-04-26T13:40:40Z</time></trkpt><trkpt lat="46.05659170151532" lon="8.09406675519541"><ele>1071.0</ele><time>2026-04-26T13:40:45Z</time></trkpt><trkpt lat="46.05653596628843" lon="8.094111718281205"><ele>1071.0</ele><time>2026-04-26T13:40:51.001Z</time></trkpt><trkpt lat="46.05649601191409" lon="8.09403653110001"><ele>1070.0</ele><time>2026-04-26T13:40:57.001Z</time></trkpt><trkpt lat="46.05644926958385" lon="8.093974188531625"><ele>1069.0</ele><time>2026-04-26T13:41:04Z</time></trkpt><trkpt lat="46.05645415132703" lon="8.093877726698302"><ele>1068.0</ele><time>2026-04-26T13:41:09.999Z</time></trkpt><trkpt lat="46.0564311599424" lon="8.093784113597085"><ele>1067.0</ele><time>2026-04-26T13:41:15.999Z</time></trkpt><trkpt lat="46.05637010830618" lon="8.093749209567962"><ele>1066.0</ele><time>2026-04-26T13:41:21.999Z</time></trkpt><trkpt lat="46.05631142833153" lon="8.09370974529561"><ele>1065.0</ele><time>2026-04-26T13:41:26.999Z</time></trkpt><trkpt lat="46.05626210959675" lon="8.09364758443007"><ele>1064.0</ele><time>2026-04-26T13:41:31.999Z</time></trkpt><trkpt lat="46.05620881926575" lon="8.09359544233841"><ele>1064.0</ele><time>2026-04-26T13:41:38.999Z</time></trkpt><trkpt lat="46.05614740824167" lon="8.093635713528439"><ele>1064.0</ele><time>2026-04-26T13:41:45.999Z</time></trkpt><trkpt lat="46.05609323194927" lon="8.093699303189615"><ele>1064.0</ele><time>2026-04-26T13:41:53.999Z</time></trkpt><trkpt lat="46.05602677100691" lon="8.0936957810404"><ele>1064.0</ele><time>2026-04-26T13:42:00.999Z</time></trkpt><trkpt lat="46.05596997342053" lon="8.093625064263954"><ele>1064.0</ele><time>2026-04-26T13:42:06.999Z</time></trkpt><trkpt lat="46.05590955586404" lon="8.093593605309046"><ele>1064.0</ele><time>2026-04-26T13:42:12.999Z</time></trkpt><trkpt lat="46.05583804494886" lon="8.093581677606794"><ele>1064.0</ele><time>2026-04-26T13:42:21.999Z</time></trkpt><trkpt lat="46.05577230285568" lon="8.093557811674813"><ele>1065.142857142857</ele><time>2026-04-26T13:42:28.999Z</time></trkpt><trkpt lat="46.05570917005339" lon="8.09359504146421"><ele>1066.2857142857142</ele><time>2026-04-26T13:42:39.999Z</time></trkpt><trkpt lat="46.055643326837824" lon="8.093571388974087"><ele>1067.4285714285716</ele><time>2026-04-26T13:42:45.999Z</time></trkpt><trkpt lat="46.05557916953947" lon="8.09354194674326"><ele>1068.5714285714284</ele><time>2026-04-26T13:42:52Z</time></trkpt><trkpt lat="46.05552176872358" lon="8.09348615127504"><ele>1069.7142857142858</ele><time>2026-04-26T13:42:58Z</time></trkpt><trkpt lat="46.05545553570784" lon="8.093451452706622"><ele>1070.857142857143</ele><time>2026-04-26T13:43:05Z</time></trkpt><trkpt lat="46.055395935027704" lon="8.093483588117731"><ele>1072.0</ele><time>2026-04-26T13:43:11Z</time></trkpt><trkpt lat="46.055365915875804" lon="8.093564521269917"><ele>1072.0</ele><time>2026-04-26T13:43:18Z</time></trkpt><trkpt lat="46.055353983950276" lon="8.093655771012429"><ele>1072.0</ele><time>2026-04-26T13:43:27Z</time></trkpt><trkpt lat="46.05532870717971" lon="8.093747642536538"><ele>1072.0</ele><time>2026-04-26T13:43:36Z</time></trkpt><trkpt lat="46.055315094093764" lon="8.093836229731027"><ele>1072.0</ele><time>2026-04-26T13:43:44Z</time></trkpt><trkpt lat="46.05525595810982" lon="8.093889563740555"><ele>1072.0</ele><time>2026-04-26T13:43:55Z</time></trkpt><trkpt lat="46.05525885140046" lon="8.093981109220742"><ele>1072.0</ele><time>2026-04-26T13:44:03.999Z</time></trkpt><trkpt lat="46.055238621535516" lon="8.094073555764869"><ele>1072.0</ele><time>2026-04-26T13:44:11.999Z</time></trkpt><trkpt lat="46.0551812536514" lon="8.094114674778332"><ele>1074.142857142857</ele><time>2026-04-26T13:44:19.999Z</time></trkpt><trkpt lat="46.05511436136596" lon="8.094148790419878"><ele>1076.2857142857142</ele><time>2026-04-26T13:44:27.999Z</time></trkpt><trkpt lat="46.05507727367805" lon="8.094223932503136"><ele>1078.4285714285713</ele><time>2026-04-26T13:44:35.999Z</time></trkpt><trkpt lat="46.0550806316434" lon="8.094326562077866"><ele>1080.5714285714284</ele><time>2026-04-26T13:44:43.999Z</time></trkpt><trkpt lat="46.05504408888925" lon="8.094405296658358"><ele>1082.7142857142856</ele><time>2026-04-26T13:44:52.999Z</time></trkpt><trkpt lat="46.054990553297074" lon="8.094470659328552"><ele>1084.857142857143</ele><time>2026-04-26T13:45:03Z</time></trkpt><trkpt lat="46.05496042427306" lon="8.094557829752572"><ele>1087.0</ele><time>2026-04-26T13:45:14Z</time></trkpt><trkpt lat="46.054930150415856" lon="8.094647688564567"><ele>1087.0</ele><time>2026-04-26T13:45:23Z</time></trkpt><trkpt lat="46.05486561991718" lon="8.094609817272197"><ele>1087.0</ele><time>2026-04-26T13:45:36Z</time></trkpt><trkpt lat="46.05486280854439" lon="8.094704717980047"><ele>1087.0</ele><time>2026-04-26T13:45:58Z</time></trkpt><trkpt lat="46.05486948438381" lon="8.094815641792325"><ele>1087.0</ele><time>2026-04-26T13:46:04Z</time></trkpt><trkpt lat="46.05483628909391" lon="8.09490433973121"><ele>1087.0</ele><time>2026-04-26T13:46:10Z</time></trkpt><trkpt lat="46.05480639412805" lon="8.094992039269481"><ele>1087.0</ele><time>2026-04-26T13:46:16Z</time></trkpt><trkpt lat="46.05477463633873" lon="8.095089546432414"><ele>1087.0</ele><time>2026-04-26T13:46:23Z</time></trkpt><trkpt lat="46.05474344190662" lon="8.095180709422271"><ele>1087.7142857142858</ele><time>2026-04-26T13:46:29Z</time></trkpt><trkpt lat="46.054713068634314" lon="8.09527246304031"><ele>1088.4285714285713</ele><time>2026-04-26T13:46:35Z</time></trkpt><trkpt lat="46.05468510394979" lon="8.09536097164859"><ele>1089.142857142857</ele><time>2026-04-26T13:46:42.999Z</time></trkpt><trkpt lat="46.05465216987805" lon="8.095443510972787"><ele>1089.857142857143</ele><time>2026-04-26T13:46:48.999Z</time></trkpt><trkpt lat="46.05463008546748" lon="8.095548196302444"><ele>1090.5714285714284</ele><time>2026-04-26T13:46:55.999Z</time></trkpt><trkpt lat="46.05458789862524" lon="8.095637872738905"><ele>1091.2857142857142</ele><time>2026-04-26T13:47:01.999Z</time></trkpt><trkpt lat="46.054551377655784" lon="8.095719794985348"><ele>1092.0</ele><time>2026-04-26T13:47:09Z</time></trkpt><trkpt lat="46.05452421238529" lon="8.09580891873946"><ele>1092.0</ele><time>2026-04-26T13:47:15Z</time></trkpt><trkpt lat="46.05450254012578" lon="8.095902033621847"><ele>1092.0</ele><time>2026-04-26T13:47:21Z</time></trkpt><trkpt lat="46.05449498115039" lon="8.095993452384166"><ele>1092.0</ele><time>2026-04-26T13:47:27Z</time></trkpt><trkpt lat="46.0545077150256" lon="8.09608647162208"><ele>1092.0</ele><time>2026-04-26T13:47:34Z</time></trkpt><trkpt lat="46.05452797590271" lon="8.096186277245936"><ele>1092.0</ele><time>2026-04-26T13:47:40Z</time></trkpt><trkpt lat="46.05453935588194" lon="8.09628666388865"><ele>1092.0</ele><time>2026-04-26T13:47:46Z</time></trkpt><trkpt lat="46.05451466267324" lon="8.096381827599533"><ele>1092.0</ele><time>2026-04-26T13:49:25.001Z</time></trkpt><trkpt lat="46.05445935234675" lon="8.096430306752717"><ele>1092.0</ele><time>2026-04-26T13:49:31Z</time></trkpt><trkpt lat="46.05439944060653" lon="8.09647265062447"><ele>1092.0</ele><time>2026-04-26T13:49:36Z</time></trkpt><trkpt lat="46.054333461426005" lon="8.09650358996872"><ele>1092.0</ele><time>2026-04-26T13:49:42Z</time></trkpt><trkpt lat="46.05427478928593" lon="8.096546570471736"><ele>1092.0</ele><time>2026-04-26T13:49:48Z</time></trkpt><trkpt lat="46.05420516679624" lon="8.096571393099968"><ele>1092.0</ele><time>2026-04-26T13:49:54Z</time></trkpt><trkpt lat="46.05416569064243" lon="8.09649945273339"><ele>1092.0</ele><time>2026-04-26T13:50:00Z</time></trkpt><trkpt lat="46.054168470813586" lon="8.096401444706476"><ele>1092.0</ele><time>2026-04-26T13:50:06Z</time></trkpt><trkpt lat="46.05415617043995" lon="8.096310069807144"><ele>1092.0</ele><time>2026-04-26T13:50:12Z</time></trkpt><trkpt lat="46.05414811220141" lon="8.09621606173385"><ele>1092.0</ele><time>2026-04-26T13:50:18Z</time></trkpt><trkpt lat="46.054128245723064" lon="8.09612061298303"><ele>1092.0</ele><time>2026-04-26T13:50:24Z</time></trkpt><trkpt lat="46.05409457707726" lon="8.096028677522366"><ele>1092.0</ele><time>2026-04-26T13:50:30Z</time></trkpt><trkpt lat="46.05402685780676" lon="8.096024666593058"><ele>1092.0</ele><time>2026-04-26T13:50:37.999Z</time></trkpt><trkpt lat="46.05399077604172" lon="8.096101723863583"><ele>1092.0</ele><time>2026-04-26T13:50:42.999Z</time></trkpt><trkpt lat="46.05395006672325" lon="8.096174512055658"><ele>1092.0</ele><time>2026-04-26T13:52:14Z</time></trkpt><trkpt lat="46.05391137976689" lon="8.096266003047885"><ele>1093.0</ele><time>2026-04-26T13:52:20.999Z</time></trkpt><trkpt lat="46.053877393190135" lon="8.09635131237246"><ele>1093.0</ele><time>2026-04-26T13:52:26.999Z</time></trkpt><trkpt lat="46.053853970380295" lon="8.09644282909492"><ele>1093.0</ele><time>2026-04-26T13:52:32.999Z</time></trkpt><trkpt lat="46.05390698161007" lon="8.096507133683142"><ele>1093.0</ele><time>2026-04-26T13:52:48.999Z</time></trkpt></trkseg></trk></gpx>